<?xml version="1.0" encoding="UTF-8" standalone="no" ?>
<gpx xmlns="http://www.topografix.com/GPX/1/1" xmlns:xsi="http://www.w3.org/2001/XMLSchema-instance" xsi:schemaLocation="http://www.topografix.com/GPX/1/1 http://www.topografix.com/GPX/1/1/gpx.xsd" version="1.1" creator="VisuGPX - https://www.visugpx.com">
  <metadata>
    <name>CYCLO des collines gapençaises aux limites du Champsaur</name>
    <desc><![CDATA[La Batie Vieille puis la côte de la Rochette puis le col de Manse : c\'est beau]]></desc>
  </metadata>
  <trk>
    <name><![CDATA[N°   gap/Batie Vieille/batie neuve / Col de Manse / Gap]]></name>
    <trkseg>
      <trkpt lat="44.5584" lon="6.07618">
        <ele>657.1984863</ele>
        <time>2012-03-01T09:44:48Z</time>
      </trkpt>
      <trkpt lat="44.55829" lon="6.0767">
        <ele>656.7177734</ele>
        <time>2012-03-01T09:45:01Z</time>
      </trkpt>
      <trkpt lat="44.5581" lon="6.07715">
        <ele>655.7565918</ele>
        <time>2012-03-01T09:45:15Z</time>
      </trkpt>
      <trkpt lat="44.55793" lon="6.07742">
        <ele>655.7565918</ele>
        <time>2012-03-01T09:45:22Z</time>
      </trkpt>
      <trkpt lat="44.55786" lon="6.07749">
        <ele>654.3146973</ele>
        <time>2012-03-01T09:45:25Z</time>
      </trkpt>
      <trkpt lat="44.55782" lon="6.07752">
        <ele>653.8339844</ele>
        <time>2012-03-01T09:45:27Z</time>
      </trkpt>
      <trkpt lat="44.55781" lon="6.07757">
        <ele>655.2758789</ele>
        <time>2012-03-01T09:45:29Z</time>
      </trkpt>
      <trkpt lat="44.55781" lon="6.07777">
        <ele>653.8339844</ele>
        <time>2012-03-01T09:45:36Z</time>
      </trkpt>
      <trkpt lat="44.55757" lon="6.07802">
        <ele>652.8725586</ele>
        <time>2012-03-01T09:45:47Z</time>
      </trkpt>
      <trkpt lat="44.55749" lon="6.07791">
        <ele>652.3918457</ele>
        <time>2012-03-01T09:45:51Z</time>
      </trkpt>
      <trkpt lat="44.55742" lon="6.07779">
        <ele>652.3918457</ele>
        <time>2012-03-01T09:45:55Z</time>
      </trkpt>
      <trkpt lat="44.5573" lon="6.07752">
        <ele>651.9111328</ele>
        <time>2012-03-01T09:46:04Z</time>
      </trkpt>
      <trkpt lat="44.55713" lon="6.07712">
        <ele>650.4692383</ele>
        <time>2012-03-01T09:46:16Z</time>
      </trkpt>
      <trkpt lat="44.55705" lon="6.07708">
        <ele>651.4304199</ele>
        <time>2012-03-01T09:46:19Z</time>
      </trkpt>
      <trkpt lat="44.55701" lon="6.07698">
        <ele>650.4692383</ele>
        <time>2012-03-01T09:46:23Z</time>
      </trkpt>
      <trkpt lat="44.5569" lon="6.07682">
        <ele>650.4692383</ele>
        <time>2012-03-01T09:46:34Z</time>
      </trkpt>
      <trkpt lat="44.5567" lon="6.07657">
        <ele>650.4692383</ele>
        <time>2012-03-01T09:46:43Z</time>
      </trkpt>
      <trkpt lat="44.55662" lon="6.07689">
        <ele>649.9885254</ele>
        <time>2012-03-01T09:46:51Z</time>
      </trkpt>
      <trkpt lat="44.55666" lon="6.07716">
        <ele>649.9885254</ele>
        <time>2012-03-01T09:47:01Z</time>
      </trkpt>
      <trkpt lat="44.55683" lon="6.07811">
        <ele>649.0270996</ele>
        <time>2012-03-01T09:47:19Z</time>
      </trkpt>
      <trkpt lat="44.55701" lon="6.07864">
        <ele>649.0270996</ele>
        <time>2012-03-01T09:47:35Z</time>
      </trkpt>
      <trkpt lat="44.55725" lon="6.07908">
        <ele>649.9885254</ele>
        <time>2012-03-01T09:47:49Z</time>
      </trkpt>
      <trkpt lat="44.5577" lon="6.07968">
        <ele>650.4692383</ele>
        <time>2012-03-01T09:48:05Z</time>
      </trkpt>
      <trkpt lat="44.55789" lon="6.07986">
        <ele>652.3918457</ele>
        <time>2012-03-01T09:48:12Z</time>
      </trkpt>
      <trkpt lat="44.55794" lon="6.07991">
        <ele>650.949707</ele>
        <time>2012-03-01T09:48:16Z</time>
      </trkpt>
      <trkpt lat="44.55795" lon="6.07992">
        <ele>650.949707</ele>
        <time>2012-03-01T09:48:21Z</time>
      </trkpt>
      <trkpt lat="44.55795" lon="6.07992">
        <ele>648.5463867</ele>
        <time>2012-03-01T09:48:32Z</time>
      </trkpt>
      <trkpt lat="44.55769" lon="6.08044">
        <ele>649.0270996</ele>
        <time>2012-03-01T09:48:37Z</time>
      </trkpt>
      <trkpt lat="44.55769" lon="6.08044">
        <ele>648.5463867</ele>
        <time>2012-03-01T09:48:42Z</time>
      </trkpt>
      <trkpt lat="44.55769" lon="6.08044">
        <ele>648.5463867</ele>
        <time>2012-03-01T09:48:49Z</time>
      </trkpt>
      <trkpt lat="44.5573" lon="6.081">
        <ele>648.065918</ele>
        <time>2012-03-01T09:48:55Z</time>
      </trkpt>
      <trkpt lat="44.55737" lon="6.08115">
        <ele>655.2758789</ele>
        <time>2012-03-01T09:48:58Z</time>
      </trkpt>
      <trkpt lat="44.55742" lon="6.08125">
        <ele>659.1210938</ele>
        <time>2012-03-01T09:49:00Z</time>
      </trkpt>
      <trkpt lat="44.55746" lon="6.08135">
        <ele>663.9274902</ele>
        <time>2012-03-01T09:49:02Z</time>
      </trkpt>
      <trkpt lat="44.55753" lon="6.08148">
        <ele>668.2536621</ele>
        <time>2012-03-01T09:49:05Z</time>
      </trkpt>
      <trkpt lat="44.55757" lon="6.08157">
        <ele>672.5795898</ele>
        <time>2012-03-01T09:49:07Z</time>
      </trkpt>
      <trkpt lat="44.55764" lon="6.0817">
        <ele>675.9440918</ele>
        <time>2012-03-01T09:49:10Z</time>
      </trkpt>
      <trkpt lat="44.55771" lon="6.08183">
        <ele>680.2700195</ele>
        <time>2012-03-01T09:49:13Z</time>
      </trkpt>
      <trkpt lat="44.55779" lon="6.08196">
        <ele>683.1538086</ele>
        <time>2012-03-01T09:49:16Z</time>
      </trkpt>
      <trkpt lat="44.55785" lon="6.08209">
        <ele>686.5187988</ele>
        <time>2012-03-01T09:49:19Z</time>
      </trkpt>
      <trkpt lat="44.55795" lon="6.08229">
        <ele>690.8444824</ele>
        <time>2012-03-01T09:49:23Z</time>
      </trkpt>
      <trkpt lat="44.55805" lon="6.08247">
        <ele>694.6896973</ele>
        <time>2012-03-01T09:49:27Z</time>
      </trkpt>
      <trkpt lat="44.55814" lon="6.08264">
        <ele>699.4963379</ele>
        <time>2012-03-01T09:49:31Z</time>
      </trkpt>
      <trkpt lat="44.55817" lon="6.08268">
        <ele>699.4963379</ele>
        <time>2012-03-01T09:49:32Z</time>
      </trkpt>
      <trkpt lat="44.55828" lon="6.08282">
        <ele>702.861084</ele>
        <time>2012-03-01T09:49:36Z</time>
      </trkpt>
      <trkpt lat="44.55834" lon="6.0829">
        <ele>703.8225098</ele>
        <time>2012-03-01T09:49:38Z</time>
      </trkpt>
      <trkpt lat="44.55852" lon="6.08312">
        <ele>707.1870117</ele>
        <time>2012-03-01T09:49:44Z</time>
      </trkpt>
      <trkpt lat="44.55858" lon="6.08319">
        <ele>707.6677246</ele>
        <time>2012-03-01T09:49:46Z</time>
      </trkpt>
      <trkpt lat="44.55871" lon="6.08332">
        <ele>710.0708008</ele>
        <time>2012-03-01T09:49:50Z</time>
      </trkpt>
      <trkpt lat="44.55886" lon="6.08349">
        <ele>712.4741211</ele>
        <time>2012-03-01T09:49:55Z</time>
      </trkpt>
      <trkpt lat="44.55911" lon="6.08377">
        <ele>716.3195801</ele>
        <time>2012-03-01T09:50:04Z</time>
      </trkpt>
      <trkpt lat="44.55928" lon="6.08394">
        <ele>719.2036133</ele>
        <time>2012-03-01T09:50:10Z</time>
      </trkpt>
      <trkpt lat="44.55955" lon="6.08418">
        <ele>722.5681152</ele>
        <time>2012-03-01T09:50:20Z</time>
      </trkpt>
      <trkpt lat="44.55966" lon="6.08425">
        <ele>724.4907227</ele>
        <time>2012-03-01T09:50:24Z</time>
      </trkpt>
      <trkpt lat="44.55976" lon="6.08432">
        <ele>724.4907227</ele>
        <time>2012-03-01T09:50:28Z</time>
      </trkpt>
      <trkpt lat="44.55976" lon="6.0846">
        <ele>724.4907227</ele>
        <time>2012-03-01T09:50:33Z</time>
      </trkpt>
      <trkpt lat="44.55958" lon="6.08511">
        <ele>728.3359375</ele>
        <time>2012-03-01T09:50:48Z</time>
      </trkpt>
      <trkpt lat="44.55953" lon="6.08529">
        <ele>729.777832</ele>
        <time>2012-03-01T09:50:54Z</time>
      </trkpt>
      <trkpt lat="44.55951" lon="6.08532">
        <ele>731.2199707</ele>
        <time>2012-03-01T09:50:56Z</time>
      </trkpt>
      <trkpt lat="44.55948" lon="6.08545">
        <ele>733.1425781</ele>
        <time>2012-03-01T09:51:01Z</time>
      </trkpt>
      <trkpt lat="44.55946" lon="6.08588">
        <ele>734.5847168</ele>
        <time>2012-03-01T09:51:17Z</time>
      </trkpt>
      <trkpt lat="44.55964" lon="6.08636">
        <ele>736.5073242</ele>
        <time>2012-03-01T09:51:35Z</time>
      </trkpt>
      <trkpt lat="44.55984" lon="6.08653">
        <ele>739.8718262</ele>
        <time>2012-03-01T09:51:51Z</time>
      </trkpt>
      <trkpt lat="44.5601" lon="6.08668">
        <ele>743.2363281</ele>
        <time>2012-03-01T09:52:16Z</time>
      </trkpt>
      <trkpt lat="44.5601" lon="6.08668">
        <ele>743.2363281</ele>
        <time>2012-03-01T09:52:17Z</time>
      </trkpt>
      <trkpt lat="44.56025" lon="6.08798">
        <ele>746.6010742</ele>
        <time>2012-03-01T09:52:41Z</time>
      </trkpt>
      <trkpt lat="44.56054" lon="6.08881">
        <ele>746.6010742</ele>
        <time>2012-03-01T09:53:03Z</time>
      </trkpt>
      <trkpt lat="44.56094" lon="6.08985">
        <ele>747.5622559</ele>
        <time>2012-03-01T09:53:25Z</time>
      </trkpt>
      <trkpt lat="44.56137" lon="6.09124">
        <ele>748.5236816</ele>
        <time>2012-03-01T09:53:54Z</time>
      </trkpt>
      <trkpt lat="44.56163" lon="6.0924">
        <ele>750.4465332</ele>
        <time>2012-03-01T09:54:17Z</time>
      </trkpt>
      <trkpt lat="44.56179" lon="6.09325">
        <ele>749.0043945</ele>
        <time>2012-03-01T09:54:31Z</time>
      </trkpt>
      <trkpt lat="44.56182" lon="6.0935">
        <ele>748.5236816</ele>
        <time>2012-03-01T09:54:35Z</time>
      </trkpt>
      <trkpt lat="44.56179" lon="6.09414">
        <ele>749.0043945</ele>
        <time>2012-03-01T09:54:45Z</time>
      </trkpt>
      <trkpt lat="44.56159" lon="6.09488">
        <ele>749.4851074</ele>
        <time>2012-03-01T09:54:59Z</time>
      </trkpt>
      <trkpt lat="44.56132" lon="6.09569">
        <ele>749.4851074</ele>
        <time>2012-03-01T09:55:16Z</time>
      </trkpt>
      <trkpt lat="44.5613" lon="6.09585">
        <ele>750.4465332</ele>
        <time>2012-03-01T09:55:20Z</time>
      </trkpt>
      <trkpt lat="44.56136" lon="6.09622">
        <ele>753.8110352</ele>
        <time>2012-03-01T09:55:30Z</time>
      </trkpt>
      <trkpt lat="44.56147" lon="6.09683">
        <ele>752.8496094</ele>
        <time>2012-03-01T09:55:45Z</time>
      </trkpt>
      <trkpt lat="44.56153" lon="6.09727">
        <ele>754.291748</ele>
        <time>2012-03-01T09:55:55Z</time>
      </trkpt>
      <trkpt lat="44.56154" lon="6.09806">
        <ele>756.6948242</ele>
        <time>2012-03-01T09:56:16Z</time>
      </trkpt>
      <trkpt lat="44.56152" lon="6.09879">
        <ele>758.1369629</ele>
        <time>2012-03-01T09:56:34Z</time>
      </trkpt>
      <trkpt lat="44.56151" lon="6.09955">
        <ele>760.5400391</ele>
        <time>2012-03-01T09:56:54Z</time>
      </trkpt>
      <trkpt lat="44.56142" lon="6.1002">
        <ele>763.904541</ele>
        <time>2012-03-01T09:57:15Z</time>
      </trkpt>
      <trkpt lat="44.56133" lon="6.10078">
        <ele>766.3081055</ele>
        <time>2012-03-01T09:57:35Z</time>
      </trkpt>
      <trkpt lat="44.56126" lon="6.10139">
        <ele>769.1921387</ele>
        <time>2012-03-01T09:57:56Z</time>
      </trkpt>
      <trkpt lat="44.5612" lon="6.1019">
        <ele>772.5566406</ele>
        <time>2012-03-01T09:58:15Z</time>
      </trkpt>
      <trkpt lat="44.56116" lon="6.10234">
        <ele>774.479248</ele>
        <time>2012-03-01T09:58:32Z</time>
      </trkpt>
      <trkpt lat="44.5611" lon="6.10282">
        <ele>777.84375</ele>
        <time>2012-03-01T09:58:50Z</time>
      </trkpt>
      <trkpt lat="44.56106" lon="6.10326">
        <ele>780.2473145</ele>
        <time>2012-03-01T09:59:07Z</time>
      </trkpt>
      <trkpt lat="44.56102" lon="6.10369">
        <ele>782.6506348</ele>
        <time>2012-03-01T09:59:24Z</time>
      </trkpt>
      <trkpt lat="44.56096" lon="6.10411">
        <ele>785.0539551</ele>
        <time>2012-03-01T09:59:41Z</time>
      </trkpt>
      <trkpt lat="44.56087" lon="6.10459">
        <ele>787.9377441</ele>
        <time>2012-03-01T09:59:59Z</time>
      </trkpt>
      <trkpt lat="44.56072" lon="6.1052">
        <ele>790.3410645</ele>
        <time>2012-03-01T10:00:21Z</time>
      </trkpt>
      <trkpt lat="44.56059" lon="6.10571">
        <ele>792.2636719</ele>
        <time>2012-03-01T10:00:40Z</time>
      </trkpt>
      <trkpt lat="44.56043" lon="6.10618">
        <ele>795.6281738</ele>
        <time>2012-03-01T10:00:57Z</time>
      </trkpt>
      <trkpt lat="44.5603" lon="6.10682">
        <ele>798.512207</ele>
        <time>2012-03-01T10:01:20Z</time>
      </trkpt>
      <trkpt lat="44.56023" lon="6.10745">
        <ele>800.9155273</ele>
        <time>2012-03-01T10:01:42Z</time>
      </trkpt>
      <trkpt lat="44.56017" lon="6.10805">
        <ele>802.8381348</ele>
        <time>2012-03-01T10:02:03Z</time>
      </trkpt>
      <trkpt lat="44.55998" lon="6.1087">
        <ele>805.2414551</ele>
        <time>2012-03-01T10:02:25Z</time>
      </trkpt>
      <trkpt lat="44.55981" lon="6.10928">
        <ele>808.1254883</ele>
        <time>2012-03-01T10:02:46Z</time>
      </trkpt>
      <trkpt lat="44.55972" lon="6.10981">
        <ele>810.0478516</ele>
        <time>2012-03-01T10:03:05Z</time>
      </trkpt>
      <trkpt lat="44.55966" lon="6.11033">
        <ele>811.4899902</ele>
        <time>2012-03-01T10:03:23Z</time>
      </trkpt>
      <trkpt lat="44.55963" lon="6.11062">
        <ele>813.4128418</ele>
        <time>2012-03-01T10:03:33Z</time>
      </trkpt>
      <trkpt lat="44.5596" lon="6.11091">
        <ele>814.3740234</ele>
        <time>2012-03-01T10:03:43Z</time>
      </trkpt>
      <trkpt lat="44.55952" lon="6.11147">
        <ele>817.2580566</ele>
        <time>2012-03-01T10:04:02Z</time>
      </trkpt>
      <trkpt lat="44.55946" lon="6.11193">
        <ele>817.7385254</ele>
        <time>2012-03-01T10:04:17Z</time>
      </trkpt>
      <trkpt lat="44.55941" lon="6.11232">
        <ele>819.1806641</ele>
        <time>2012-03-01T10:04:29Z</time>
      </trkpt>
      <trkpt lat="44.55931" lon="6.11277">
        <ele>820.1418457</ele>
        <time>2012-03-01T10:04:43Z</time>
      </trkpt>
      <trkpt lat="44.55924" lon="6.11354">
        <ele>820.1418457</ele>
        <time>2012-03-01T10:05:06Z</time>
      </trkpt>
      <trkpt lat="44.55924" lon="6.11384">
        <ele>822.545166</ele>
        <time>2012-03-01T10:05:15Z</time>
      </trkpt>
      <trkpt lat="44.55927" lon="6.11448">
        <ele>823.5065918</ele>
        <time>2012-03-01T10:05:32Z</time>
      </trkpt>
      <trkpt lat="44.55928" lon="6.11456">
        <ele>824.4677734</ele>
        <time>2012-03-01T10:05:34Z</time>
      </trkpt>
      <trkpt lat="44.55922" lon="6.11524">
        <ele>823.0258789</ele>
        <time>2012-03-01T10:05:52Z</time>
      </trkpt>
      <trkpt lat="44.5592" lon="6.11532">
        <ele>824.9484863</ele>
        <time>2012-03-01T10:05:54Z</time>
      </trkpt>
      <trkpt lat="44.55888" lon="6.11633">
        <ele>824.9484863</ele>
        <time>2012-03-01T10:06:17Z</time>
      </trkpt>
      <trkpt lat="44.55841" lon="6.11712">
        <ele>826.3903809</ele>
        <time>2012-03-01T10:06:40Z</time>
      </trkpt>
      <trkpt lat="44.55782" lon="6.11762">
        <ele>825.4289551</ele>
        <time>2012-03-01T10:06:56Z</time>
      </trkpt>
      <trkpt lat="44.55775" lon="6.11769">
        <ele>824.9484863</ele>
        <time>2012-03-01T10:06:58Z</time>
      </trkpt>
      <trkpt lat="44.55746" lon="6.11851">
        <ele>826.3903809</ele>
        <time>2012-03-01T10:07:16Z</time>
      </trkpt>
      <trkpt lat="44.55737" lon="6.11936">
        <ele>827.8322754</ele>
        <time>2012-03-01T10:07:36Z</time>
      </trkpt>
      <trkpt lat="44.55726" lon="6.12011">
        <ele>830.2358398</ele>
        <time>2012-03-01T10:07:57Z</time>
      </trkpt>
      <trkpt lat="44.55702" lon="6.12107">
        <ele>832.1584473</ele>
        <time>2012-03-01T10:08:23Z</time>
      </trkpt>
      <trkpt lat="44.55654" lon="6.12178">
        <ele>832.6391602</ele>
        <time>2012-03-01T10:08:43Z</time>
      </trkpt>
      <trkpt lat="44.55593" lon="6.12263">
        <ele>835.0424805</ele>
        <time>2012-03-01T10:09:09Z</time>
      </trkpt>
      <trkpt lat="44.55585" lon="6.12332">
        <ele>836.484375</ele>
        <time>2012-03-01T10:09:25Z</time>
      </trkpt>
      <trkpt lat="44.55546" lon="6.12379">
        <ele>837.9262695</ele>
        <time>2012-03-01T10:09:41Z</time>
      </trkpt>
      <trkpt lat="44.55499" lon="6.12435">
        <ele>838.4069824</ele>
        <time>2012-03-01T10:10:00Z</time>
      </trkpt>
      <trkpt lat="44.55456" lon="6.12523">
        <ele>839.3681641</ele>
        <time>2012-03-01T10:10:21Z</time>
      </trkpt>
      <trkpt lat="44.55402" lon="6.12588">
        <ele>840.3295898</ele>
        <time>2012-03-01T10:10:41Z</time>
      </trkpt>
      <trkpt lat="44.55334" lon="6.12653">
        <ele>840.8100586</ele>
        <time>2012-03-01T10:11:04Z</time>
      </trkpt>
      <trkpt lat="44.55295" lon="6.12689">
        <ele>843.6940918</ele>
        <time>2012-03-01T10:11:18Z</time>
      </trkpt>
      <trkpt lat="44.55245" lon="6.1275">
        <ele>842.2521973</ele>
        <time>2012-03-01T10:11:40Z</time>
      </trkpt>
      <trkpt lat="44.55245" lon="6.12754">
        <ele>842.2521973</ele>
        <time>2012-03-01T10:11:41Z</time>
      </trkpt>
      <trkpt lat="44.55245" lon="6.12771">
        <ele>846.0976563</ele>
        <time>2012-03-01T10:11:46Z</time>
      </trkpt>
      <trkpt lat="44.55246" lon="6.12776">
        <ele>842.7329102</ele>
        <time>2012-03-01T10:11:47Z</time>
      </trkpt>
      <trkpt lat="44.55248" lon="6.12789">
        <ele>845.6169434</ele>
        <time>2012-03-01T10:11:50Z</time>
      </trkpt>
      <trkpt lat="44.5525" lon="6.12798">
        <ele>843.6940918</ele>
        <time>2012-03-01T10:11:52Z</time>
      </trkpt>
      <trkpt lat="44.55256" lon="6.1282">
        <ele>845.6169434</ele>
        <time>2012-03-01T10:11:57Z</time>
      </trkpt>
      <trkpt lat="44.55264" lon="6.1285">
        <ele>847.5395508</ele>
        <time>2012-03-01T10:12:04Z</time>
      </trkpt>
      <trkpt lat="44.55281" lon="6.12907">
        <ele>845.1362305</ele>
        <time>2012-03-01T10:12:18Z</time>
      </trkpt>
      <trkpt lat="44.55284" lon="6.12915">
        <ele>847.5395508</ele>
        <time>2012-03-01T10:12:20Z</time>
      </trkpt>
      <trkpt lat="44.55308" lon="6.12945">
        <ele>849.4621582</ele>
        <time>2012-03-01T10:12:33Z</time>
      </trkpt>
      <trkpt lat="44.55314" lon="6.12949">
        <ele>848.0202637</ele>
        <time>2012-03-01T10:12:36Z</time>
      </trkpt>
      <trkpt lat="44.55318" lon="6.12952">
        <ele>849.9428711</ele>
        <time>2012-03-01T10:12:38Z</time>
      </trkpt>
      <trkpt lat="44.55323" lon="6.12954">
        <ele>851.3847656</ele>
        <time>2012-03-01T10:12:40Z</time>
      </trkpt>
      <trkpt lat="44.5536" lon="6.12974">
        <ele>852.3459473</ele>
        <time>2012-03-01T10:12:57Z</time>
      </trkpt>
      <trkpt lat="44.55388" lon="6.12995">
        <ele>852.3459473</ele>
        <time>2012-03-01T10:13:11Z</time>
      </trkpt>
      <trkpt lat="44.55395" lon="6.13005">
        <ele>854.7492676</ele>
        <time>2012-03-01T10:13:15Z</time>
      </trkpt>
      <trkpt lat="44.55408" lon="6.13061">
        <ele>857.1525879</ele>
        <time>2012-03-01T10:13:33Z</time>
      </trkpt>
      <trkpt lat="44.55412" lon="6.1313">
        <ele>860.0366211</ele>
        <time>2012-03-01T10:13:54Z</time>
      </trkpt>
      <trkpt lat="44.55426" lon="6.13204">
        <ele>861.9594727</ele>
        <time>2012-03-01T10:14:15Z</time>
      </trkpt>
      <trkpt lat="44.55446" lon="6.13273">
        <ele>863.4013672</ele>
        <time>2012-03-01T10:14:35Z</time>
      </trkpt>
      <trkpt lat="44.55464" lon="6.1334">
        <ele>865.3239746</ele>
        <time>2012-03-01T10:14:55Z</time>
      </trkpt>
      <trkpt lat="44.5548" lon="6.13412">
        <ele>866.7658691</ele>
        <time>2012-03-01T10:15:15Z</time>
      </trkpt>
      <trkpt lat="44.55483" lon="6.13487">
        <ele>868.2077637</ele>
        <time>2012-03-01T10:15:35Z</time>
      </trkpt>
      <trkpt lat="44.55497" lon="6.13547">
        <ele>869.1691895</ele>
        <time>2012-03-01T10:15:51Z</time>
      </trkpt>
      <trkpt lat="44.55519" lon="6.13625">
        <ele>871.0917969</ele>
        <time>2012-03-01T10:16:14Z</time>
      </trkpt>
      <trkpt lat="44.55538" lon="6.13695">
        <ele>873.9755859</ele>
        <time>2012-03-01T10:16:37Z</time>
      </trkpt>
      <trkpt lat="44.55563" lon="6.1376">
        <ele>876.3791504</ele>
        <time>2012-03-01T10:17:01Z</time>
      </trkpt>
      <trkpt lat="44.55586" lon="6.13808">
        <ele>879.2629395</ele>
        <time>2012-03-01T10:17:21Z</time>
      </trkpt>
      <trkpt lat="44.55603" lon="6.13848">
        <ele>880.7050781</ele>
        <time>2012-03-01T10:17:37Z</time>
      </trkpt>
      <trkpt lat="44.55623" lon="6.13904">
        <ele>884.0695801</ele>
        <time>2012-03-01T10:17:59Z</time>
      </trkpt>
      <trkpt lat="44.55635" lon="6.13952">
        <ele>886.4729004</ele>
        <time>2012-03-01T10:18:17Z</time>
      </trkpt>
      <trkpt lat="44.55645" lon="6.14012">
        <ele>888.8762207</ele>
        <time>2012-03-01T10:18:39Z</time>
      </trkpt>
      <trkpt lat="44.55657" lon="6.14069">
        <ele>890.798584</ele>
        <time>2012-03-01T10:19:00Z</time>
      </trkpt>
      <trkpt lat="44.55681" lon="6.14127">
        <ele>894.1635742</ele>
        <time>2012-03-01T10:19:23Z</time>
      </trkpt>
      <trkpt lat="44.55698" lon="6.14167">
        <ele>895.6054688</ele>
        <time>2012-03-01T10:19:39Z</time>
      </trkpt>
      <trkpt lat="44.55721" lon="6.14224">
        <ele>898.9699707</ele>
        <time>2012-03-01T10:20:02Z</time>
      </trkpt>
      <trkpt lat="44.5574" lon="6.14276">
        <ele>900.8925781</ele>
        <time>2012-03-01T10:20:21Z</time>
      </trkpt>
      <trkpt lat="44.55771" lon="6.14332">
        <ele>901.373291</ele>
        <time>2012-03-01T10:20:43Z</time>
      </trkpt>
      <trkpt lat="44.55787" lon="6.14389">
        <ele>903.7766113</ele>
        <time>2012-03-01T10:21:03Z</time>
      </trkpt>
      <trkpt lat="44.55796" lon="6.14433">
        <ele>906.1796875</ele>
        <time>2012-03-01T10:21:18Z</time>
      </trkpt>
      <trkpt lat="44.55809" lon="6.14488">
        <ele>907.6218262</ele>
        <time>2012-03-01T10:21:38Z</time>
      </trkpt>
      <trkpt lat="44.55819" lon="6.14541">
        <ele>910.5058594</ele>
        <time>2012-03-01T10:21:57Z</time>
      </trkpt>
      <trkpt lat="44.55827" lon="6.1459">
        <ele>912.4284668</ele>
        <time>2012-03-01T10:22:16Z</time>
      </trkpt>
      <trkpt lat="44.55844" lon="6.14647">
        <ele>915.3125</ele>
        <time>2012-03-01T10:22:37Z</time>
      </trkpt>
      <trkpt lat="44.55852" lon="6.14696">
        <ele>917.2351074</ele>
        <time>2012-03-01T10:22:54Z</time>
      </trkpt>
      <trkpt lat="44.55858" lon="6.1475">
        <ele>919.6384277</ele>
        <time>2012-03-01T10:23:13Z</time>
      </trkpt>
      <trkpt lat="44.55865" lon="6.14802">
        <ele>922.0415039</ele>
        <time>2012-03-01T10:23:32Z</time>
      </trkpt>
      <trkpt lat="44.55875" lon="6.14856">
        <ele>923.9641113</ele>
        <time>2012-03-01T10:23:52Z</time>
      </trkpt>
      <trkpt lat="44.55884" lon="6.14912">
        <ele>926.3676758</ele>
        <time>2012-03-01T10:24:12Z</time>
      </trkpt>
      <trkpt lat="44.55887" lon="6.14968">
        <ele>929.2514648</ele>
        <time>2012-03-01T10:24:32Z</time>
      </trkpt>
      <trkpt lat="44.5589" lon="6.15033">
        <ele>932.135498</ele>
        <time>2012-03-01T10:24:54Z</time>
      </trkpt>
      <trkpt lat="44.55891" lon="6.15058">
        <ele>932.6162109</ele>
        <time>2012-03-01T10:25:02Z</time>
      </trkpt>
      <trkpt lat="44.55892" lon="6.15115">
        <ele>935.5</ele>
        <time>2012-03-01T10:25:22Z</time>
      </trkpt>
      <trkpt lat="44.55895" lon="6.15192">
        <ele>937.9033203</ele>
        <time>2012-03-01T10:25:48Z</time>
      </trkpt>
      <trkpt lat="44.55898" lon="6.15262">
        <ele>940.7873535</ele>
        <time>2012-03-01T10:26:12Z</time>
      </trkpt>
      <trkpt lat="44.55904" lon="6.15334">
        <ele>944.1520996</ele>
        <time>2012-03-01T10:26:38Z</time>
      </trkpt>
      <trkpt lat="44.55914" lon="6.1539">
        <ele>947.0358887</ele>
        <time>2012-03-01T10:26:59Z</time>
      </trkpt>
      <trkpt lat="44.55925" lon="6.15446">
        <ele>949.439209</ele>
        <time>2012-03-01T10:27:19Z</time>
      </trkpt>
      <trkpt lat="44.55935" lon="6.15495">
        <ele>950.4006348</ele>
        <time>2012-03-01T10:27:38Z</time>
      </trkpt>
      <trkpt lat="44.5594" lon="6.15516">
        <ele>952.8037109</ele>
        <time>2012-03-01T10:27:46Z</time>
      </trkpt>
      <trkpt lat="44.5595" lon="6.15569">
        <ele>955.2070313</ele>
        <time>2012-03-01T10:28:06Z</time>
      </trkpt>
      <trkpt lat="44.55957" lon="6.15605">
        <ele>958.0913086</ele>
        <time>2012-03-01T10:28:20Z</time>
      </trkpt>
      <trkpt lat="44.55961" lon="6.15655">
        <ele>960.0136719</ele>
        <time>2012-03-01T10:28:38Z</time>
      </trkpt>
      <trkpt lat="44.55958" lon="6.15687">
        <ele>962.8977051</ele>
        <time>2012-03-01T10:28:50Z</time>
      </trkpt>
      <trkpt lat="44.55958" lon="6.15689">
        <ele>962.8977051</ele>
        <time>2012-03-01T10:28:51Z</time>
      </trkpt>
      <trkpt lat="44.55956" lon="6.15721">
        <ele>963.8588867</ele>
        <time>2012-03-01T10:29:02Z</time>
      </trkpt>
      <trkpt lat="44.55954" lon="6.15757">
        <ele>965.3010254</ele>
        <time>2012-03-01T10:29:14Z</time>
      </trkpt>
      <trkpt lat="44.55949" lon="6.15821">
        <ele>967.7041016</ele>
        <time>2012-03-01T10:29:37Z</time>
      </trkpt>
      <trkpt lat="44.55943" lon="6.15884">
        <ele>969.6269531</ele>
        <time>2012-03-01T10:29:59Z</time>
      </trkpt>
      <trkpt lat="44.55931" lon="6.15939">
        <ele>972.5109863</ele>
        <time>2012-03-01T10:30:19Z</time>
      </trkpt>
      <trkpt lat="44.55912" lon="6.16009">
        <ele>974.9143066</ele>
        <time>2012-03-01T10:30:44Z</time>
      </trkpt>
      <trkpt lat="44.55874" lon="6.16047">
        <ele>976.8369141</ele>
        <time>2012-03-01T10:31:04Z</time>
      </trkpt>
      <trkpt lat="44.55836" lon="6.16079">
        <ele>979.7207031</ele>
        <time>2012-03-01T10:31:26Z</time>
      </trkpt>
      <trkpt lat="44.55788" lon="6.16105">
        <ele>982.6047363</ele>
        <time>2012-03-01T10:31:51Z</time>
      </trkpt>
      <trkpt lat="44.5575" lon="6.16105">
        <ele>985.4885254</ele>
        <time>2012-03-01T10:32:09Z</time>
      </trkpt>
      <trkpt lat="44.557" lon="6.16088">
        <ele>987.8918457</ele>
        <time>2012-03-01T10:32:34Z</time>
      </trkpt>
      <trkpt lat="44.55653" lon="6.1607">
        <ele>991.2565918</ele>
        <time>2012-03-01T10:32:58Z</time>
      </trkpt>
      <trkpt lat="44.55622" lon="6.1605">
        <ele>994.140625</ele>
        <time>2012-03-01T10:33:16Z</time>
      </trkpt>
      <trkpt lat="44.55592" lon="6.16026">
        <ele>997.505127</ele>
        <time>2012-03-01T10:33:34Z</time>
      </trkpt>
      <trkpt lat="44.55563" lon="6.16003">
        <ele>1000.3891602</ele>
        <time>2012-03-01T10:33:53Z</time>
      </trkpt>
      <trkpt lat="44.55534" lon="6.15988">
        <ele>1003.7536621</ele>
        <time>2012-03-01T10:34:11Z</time>
      </trkpt>
      <trkpt lat="44.55501" lon="6.15989">
        <ele>1006.6376953</ele>
        <time>2012-03-01T10:34:30Z</time>
      </trkpt>
      <trkpt lat="44.55471" lon="6.16009">
        <ele>1009.5217285</ele>
        <time>2012-03-01T10:34:49Z</time>
      </trkpt>
      <trkpt lat="44.5547" lon="6.16011">
        <ele>1009.5217285</ele>
        <time>2012-03-01T10:34:50Z</time>
      </trkpt>
      <trkpt lat="44.55439" lon="6.16047">
        <ele>1011.9250488</ele>
        <time>2012-03-01T10:35:10Z</time>
      </trkpt>
      <trkpt lat="44.55422" lon="6.16093">
        <ele>1011.9250488</ele>
        <time>2012-03-01T10:35:27Z</time>
      </trkpt>
      <trkpt lat="44.5542" lon="6.16102">
        <ele>1011.4443359</ele>
        <time>2012-03-01T10:35:30Z</time>
      </trkpt>
      <trkpt lat="44.55412" lon="6.16166">
        <ele>1010.4829102</ele>
        <time>2012-03-01T10:35:44Z</time>
      </trkpt>
      <trkpt lat="44.55408" lon="6.16189">
        <ele>1010.0021973</ele>
        <time>2012-03-01T10:35:49Z</time>
      </trkpt>
      <trkpt lat="44.55391" lon="6.16131">
        <ele>1008.079834</ele>
        <time>2012-03-01T10:35:55Z</time>
      </trkpt>
      <trkpt lat="44.55386" lon="6.16129">
        <ele>1007.1184082</ele>
        <time>2012-03-01T10:35:56Z</time>
      </trkpt>
      <trkpt lat="44.55363" lon="6.16124">
        <ele>1002.7922363</ele>
        <time>2012-03-01T10:36:00Z</time>
      </trkpt>
      <trkpt lat="44.55357" lon="6.16123">
        <ele>1006.1569824</ele>
        <time>2012-03-01T10:36:01Z</time>
      </trkpt>
      <trkpt lat="44.55345" lon="6.16121">
        <ele>1005.6765137</ele>
        <time>2012-03-01T10:36:03Z</time>
      </trkpt>
      <trkpt lat="44.55324" lon="6.16118">
        <ele>1004.7150879</ele>
        <time>2012-03-01T10:36:06Z</time>
      </trkpt>
      <trkpt lat="44.55317" lon="6.16118">
        <ele>1002.3115234</ele>
        <time>2012-03-01T10:36:09Z</time>
      </trkpt>
      <trkpt lat="44.55317" lon="6.16118">
        <ele>1004.2346191</ele>
        <time>2012-03-01T10:36:11Z</time>
      </trkpt>
      <trkpt lat="44.55317" lon="6.16118">
        <ele>1005.1958008</ele>
        <time>2012-03-01T10:37:22Z</time>
      </trkpt>
      <trkpt lat="44.55308" lon="6.1621">
        <ele>1002.7922363</ele>
        <time>2012-03-01T10:37:27Z</time>
      </trkpt>
      <trkpt lat="44.55297" lon="6.16224">
        <ele>1004.7150879</ele>
        <time>2012-03-01T10:37:32Z</time>
      </trkpt>
      <trkpt lat="44.5529" lon="6.16238">
        <ele>1002.7922363</ele>
        <time>2012-03-01T10:37:36Z</time>
      </trkpt>
      <trkpt lat="44.55281" lon="6.16256">
        <ele>1004.7150879</ele>
        <time>2012-03-01T10:37:41Z</time>
      </trkpt>
      <trkpt lat="44.55275" lon="6.16263">
        <ele>1001.3503418</ele>
        <time>2012-03-01T10:37:44Z</time>
      </trkpt>
      <trkpt lat="44.55273" lon="6.16265">
        <ele>1001.8310547</ele>
        <time>2012-03-01T10:37:45Z</time>
      </trkpt>
      <trkpt lat="44.5525" lon="6.16258">
        <ele>1005.1958008</ele>
        <time>2012-03-01T10:37:56Z</time>
      </trkpt>
      <trkpt lat="44.55248" lon="6.16256">
        <ele>1005.1958008</ele>
        <time>2012-03-01T10:37:57Z</time>
      </trkpt>
      <trkpt lat="44.55238" lon="6.1625">
        <ele>1005.6765137</ele>
        <time>2012-03-01T10:38:02Z</time>
      </trkpt>
      <trkpt lat="44.55217" lon="6.16246">
        <ele>1007.5991211</ele>
        <time>2012-03-01T10:38:13Z</time>
      </trkpt>
      <trkpt lat="44.55207" lon="6.16248">
        <ele>1009.0410156</ele>
        <time>2012-03-01T10:38:18Z</time>
      </trkpt>
      <trkpt lat="44.5519" lon="6.16261">
        <ele>1010.0021973</ele>
        <time>2012-03-01T10:38:27Z</time>
      </trkpt>
      <trkpt lat="44.55159" lon="6.16304">
        <ele>1012.8862305</ele>
        <time>2012-03-01T10:38:49Z</time>
      </trkpt>
      <trkpt lat="44.55127" lon="6.16358">
        <ele>1013.3669434</ele>
        <time>2012-03-01T10:39:13Z</time>
      </trkpt>
      <trkpt lat="44.551" lon="6.1641">
        <ele>1015.7702637</ele>
        <time>2012-03-01T10:39:36Z</time>
      </trkpt>
      <trkpt lat="44.55074" lon="6.16455">
        <ele>1018.6540527</ele>
        <time>2012-03-01T10:39:57Z</time>
      </trkpt>
      <trkpt lat="44.55053" lon="6.16499">
        <ele>1022.0187988</ele>
        <time>2012-03-01T10:40:17Z</time>
      </trkpt>
      <trkpt lat="44.55032" lon="6.16548">
        <ele>1024.902832</ele>
        <time>2012-03-01T10:40:39Z</time>
      </trkpt>
      <trkpt lat="44.55007" lon="6.16595">
        <ele>1027.3061523</ele>
        <time>2012-03-01T10:41:00Z</time>
      </trkpt>
      <trkpt lat="44.54975" lon="6.16616">
        <ele>1030.1899414</ele>
        <time>2012-03-01T10:41:18Z</time>
      </trkpt>
      <trkpt lat="44.54936" lon="6.16636">
        <ele>1033.5544434</ele>
        <time>2012-03-01T10:41:38Z</time>
      </trkpt>
      <trkpt lat="44.54896" lon="6.16654">
        <ele>1035.4770508</ele>
        <time>2012-03-01T10:41:58Z</time>
      </trkpt>
      <trkpt lat="44.5485" lon="6.16672">
        <ele>1038.3613281</ele>
        <time>2012-03-01T10:42:20Z</time>
      </trkpt>
      <trkpt lat="44.54802" lon="6.16694">
        <ele>1039.3225098</ele>
        <time>2012-03-01T10:42:42Z</time>
      </trkpt>
      <trkpt lat="44.5476" lon="6.16704">
        <ele>1035.4770508</ele>
        <time>2012-03-01T10:42:50Z</time>
      </trkpt>
      <trkpt lat="44.54753" lon="6.16705">
        <ele>1035.4770508</ele>
        <time>2012-03-01T10:42:51Z</time>
      </trkpt>
      <trkpt lat="44.54671" lon="6.1672">
        <ele>1032.1125488</ele>
        <time>2012-03-01T10:43:01Z</time>
      </trkpt>
      <trkpt lat="44.54577" lon="6.1675">
        <ele>1033.0737305</ele>
        <time>2012-03-01T10:43:14Z</time>
      </trkpt>
      <trkpt lat="44.54571" lon="6.16752">
        <ele>1033.0737305</ele>
        <time>2012-03-01T10:43:15Z</time>
      </trkpt>
      <trkpt lat="44.54528" lon="6.16766">
        <ele>1032.5932617</ele>
        <time>2012-03-01T10:43:24Z</time>
      </trkpt>
      <trkpt lat="44.54482" lon="6.16798">
        <ele>1033.5544434</ele>
        <time>2012-03-01T10:43:40Z</time>
      </trkpt>
      <trkpt lat="44.54477" lon="6.16805">
        <ele>1032.1125488</ele>
        <time>2012-03-01T10:43:42Z</time>
      </trkpt>
      <trkpt lat="44.54449" lon="6.16868">
        <ele>1032.1125488</ele>
        <time>2012-03-01T10:43:57Z</time>
      </trkpt>
      <trkpt lat="44.54445" lon="6.16915">
        <ele>1032.5932617</ele>
        <time>2012-03-01T10:44:05Z</time>
      </trkpt>
      <trkpt lat="44.54443" lon="6.16954">
        <ele>1031.6318359</ele>
        <time>2012-03-01T10:44:11Z</time>
      </trkpt>
      <trkpt lat="44.54438" lon="6.17084">
        <ele>1028.7480469</ele>
        <time>2012-03-01T10:44:27Z</time>
      </trkpt>
      <trkpt lat="44.54462" lon="6.17218">
        <ele>1028.267334</ele>
        <time>2012-03-01T10:44:43Z</time>
      </trkpt>
      <trkpt lat="44.54471" lon="6.17266">
        <ele>1026.3447266</ele>
        <time>2012-03-01T10:44:49Z</time>
      </trkpt>
      <trkpt lat="44.54473" lon="6.17283">
        <ele>1026.3447266</ele>
        <time>2012-03-01T10:44:51Z</time>
      </trkpt>
      <trkpt lat="44.54465" lon="6.17355">
        <ele>1022.9802246</ele>
        <time>2012-03-01T10:44:58Z</time>
      </trkpt>
      <trkpt lat="44.54462" lon="6.17366">
        <ele>1022.9802246</ele>
        <time>2012-03-01T10:44:59Z</time>
      </trkpt>
      <trkpt lat="44.54458" lon="6.17388">
        <ele>1021.0576172</ele>
        <time>2012-03-01T10:45:01Z</time>
      </trkpt>
      <trkpt lat="44.54455" lon="6.1741">
        <ele>1020.0961914</ele>
        <time>2012-03-01T10:45:03Z</time>
      </trkpt>
      <trkpt lat="44.54454" lon="6.17444">
        <ele>1017.692627</ele>
        <time>2012-03-01T10:45:06Z</time>
      </trkpt>
      <trkpt lat="44.54454" lon="6.17455">
        <ele>1016.7314453</ele>
        <time>2012-03-01T10:45:07Z</time>
      </trkpt>
      <trkpt lat="44.54447" lon="6.17512">
        <ele>1013.8474121</ele>
        <time>2012-03-01T10:45:12Z</time>
      </trkpt>
      <trkpt lat="44.54438" lon="6.17544">
        <ele>1011.9250488</ele>
        <time>2012-03-01T10:45:15Z</time>
      </trkpt>
      <trkpt lat="44.54433" lon="6.17564">
        <ele>1010.4829102</ele>
        <time>2012-03-01T10:45:17Z</time>
      </trkpt>
      <trkpt lat="44.54424" lon="6.17598">
        <ele>1007.5991211</ele>
        <time>2012-03-01T10:45:20Z</time>
      </trkpt>
      <trkpt lat="44.54417" lon="6.17646">
        <ele>1005.6765137</ele>
        <time>2012-03-01T10:45:24Z</time>
      </trkpt>
      <trkpt lat="44.54415" lon="6.17676">
        <ele>1003.2729492</ele>
        <time>2012-03-01T10:45:27Z</time>
      </trkpt>
      <trkpt lat="44.54395" lon="6.17697">
        <ele>1001.3503418</ele>
        <time>2012-03-01T10:45:34Z</time>
      </trkpt>
      <trkpt lat="44.54389" lon="6.17669">
        <ele>1000.8696289</ele>
        <time>2012-03-01T10:45:38Z</time>
      </trkpt>
      <trkpt lat="44.54384" lon="6.17588">
        <ele>998.9470215</ele>
        <time>2012-03-01T10:45:48Z</time>
      </trkpt>
      <trkpt lat="44.54374" lon="6.17559">
        <ele>997.505127</ele>
        <time>2012-03-01T10:45:53Z</time>
      </trkpt>
      <trkpt lat="44.54363" lon="6.17533">
        <ele>996.5439453</ele>
        <time>2012-03-01T10:45:57Z</time>
      </trkpt>
      <trkpt lat="44.54341" lon="6.17511">
        <ele>995.1018066</ele>
        <time>2012-03-01T10:46:01Z</time>
      </trkpt>
      <trkpt lat="44.54318" lon="6.17498">
        <ele>992.6987305</ele>
        <time>2012-03-01T10:46:04Z</time>
      </trkpt>
      <trkpt lat="44.54311" lon="6.17496">
        <ele>991.2565918</ele>
        <time>2012-03-01T10:46:05Z</time>
      </trkpt>
      <trkpt lat="44.54289" lon="6.17492">
        <ele>989.8146973</ele>
        <time>2012-03-01T10:46:08Z</time>
      </trkpt>
      <trkpt lat="44.54271" lon="6.17492">
        <ele>987.8918457</ele>
        <time>2012-03-01T10:46:11Z</time>
      </trkpt>
      <trkpt lat="44.54258" lon="6.17492">
        <ele>987.4111328</ele>
        <time>2012-03-01T10:46:13Z</time>
      </trkpt>
      <trkpt lat="44.54217" lon="6.17478">
        <ele>984.0466309</ele>
        <time>2012-03-01T10:46:19Z</time>
      </trkpt>
      <trkpt lat="44.54212" lon="6.17477">
        <ele>984.0466309</ele>
        <time>2012-03-01T10:46:20Z</time>
      </trkpt>
      <trkpt lat="44.54202" lon="6.17478">
        <ele>982.6047363</ele>
        <time>2012-03-01T10:46:22Z</time>
      </trkpt>
      <trkpt lat="44.54196" lon="6.17506">
        <ele>980.6821289</ele>
        <time>2012-03-01T10:46:27Z</time>
      </trkpt>
      <trkpt lat="44.54211" lon="6.17512">
        <ele>979.2399902</ele>
        <time>2012-03-01T10:46:30Z</time>
      </trkpt>
      <trkpt lat="44.54221" lon="6.1752">
        <ele>979.2399902</ele>
        <time>2012-03-01T10:46:32Z</time>
      </trkpt>
      <trkpt lat="44.54232" lon="6.17583">
        <ele>975.8754883</ele>
        <time>2012-03-01T10:46:40Z</time>
      </trkpt>
      <trkpt lat="44.54228" lon="6.17603">
        <ele>974.4335938</ele>
        <time>2012-03-01T10:46:42Z</time>
      </trkpt>
      <trkpt lat="44.54218" lon="6.17633">
        <ele>972.9916992</ele>
        <time>2012-03-01T10:46:45Z</time>
      </trkpt>
      <trkpt lat="44.54215" lon="6.17643">
        <ele>972.9916992</ele>
        <time>2012-03-01T10:46:46Z</time>
      </trkpt>
      <trkpt lat="44.54208" lon="6.17662">
        <ele>970.1074219</ele>
        <time>2012-03-01T10:46:48Z</time>
      </trkpt>
      <trkpt lat="44.54188" lon="6.17705">
        <ele>967.2236328</ele>
        <time>2012-03-01T10:46:53Z</time>
      </trkpt>
      <trkpt lat="44.54177" lon="6.17741">
        <ele>967.2236328</ele>
        <time>2012-03-01T10:46:57Z</time>
      </trkpt>
      <trkpt lat="44.54175" lon="6.17759">
        <ele>965.7817383</ele>
        <time>2012-03-01T10:46:59Z</time>
      </trkpt>
      <trkpt lat="44.54177" lon="6.17841">
        <ele>964.3395996</ele>
        <time>2012-03-01T10:47:08Z</time>
      </trkpt>
      <trkpt lat="44.54199" lon="6.17884">
        <ele>962.8977051</ele>
        <time>2012-03-01T10:47:14Z</time>
      </trkpt>
      <trkpt lat="44.54222" lon="6.17899">
        <ele>961.4558105</ele>
        <time>2012-03-01T10:47:18Z</time>
      </trkpt>
      <trkpt lat="44.54229" lon="6.179">
        <ele>960.9750977</ele>
        <time>2012-03-01T10:47:19Z</time>
      </trkpt>
      <trkpt lat="44.54259" lon="6.17908">
        <ele>960.0136719</ele>
        <time>2012-03-01T10:47:23Z</time>
      </trkpt>
      <trkpt lat="44.54325" lon="6.17947">
        <ele>957.6105957</ele>
        <time>2012-03-01T10:47:32Z</time>
      </trkpt>
      <trkpt lat="44.54348" lon="6.17957">
        <ele>956.168457</ele>
        <time>2012-03-01T10:47:35Z</time>
      </trkpt>
      <trkpt lat="44.54377" lon="6.17999">
        <ele>954.2458496</ele>
        <time>2012-03-01T10:47:41Z</time>
      </trkpt>
      <trkpt lat="44.54388" lon="6.18018">
        <ele>953.2844238</ele>
        <time>2012-03-01T10:47:43Z</time>
      </trkpt>
      <trkpt lat="44.54401" lon="6.18033">
        <ele>950.8811035</ele>
        <time>2012-03-01T10:47:45Z</time>
      </trkpt>
      <trkpt lat="44.54419" lon="6.18061">
        <ele>949.9199219</ele>
        <time>2012-03-01T10:47:48Z</time>
      </trkpt>
      <trkpt lat="44.54431" lon="6.18077">
        <ele>949.439209</ele>
        <time>2012-03-01T10:47:50Z</time>
      </trkpt>
      <trkpt lat="44.54443" lon="6.18092">
        <ele>947.9973145</ele>
        <time>2012-03-01T10:47:52Z</time>
      </trkpt>
      <trkpt lat="44.54457" lon="6.18105">
        <ele>945.5939941</ele>
        <time>2012-03-01T10:47:54Z</time>
      </trkpt>
      <trkpt lat="44.54493" lon="6.18117">
        <ele>945.1132813</ele>
        <time>2012-03-01T10:47:59Z</time>
      </trkpt>
      <trkpt lat="44.54513" lon="6.18123">
        <ele>942.7102051</ele>
        <time>2012-03-01T10:48:02Z</time>
      </trkpt>
      <trkpt lat="44.54522" lon="6.18136">
        <ele>944.6325684</ele>
        <time>2012-03-01T10:48:04Z</time>
      </trkpt>
      <trkpt lat="44.54535" lon="6.18148">
        <ele>942.2294922</ele>
        <time>2012-03-01T10:48:06Z</time>
      </trkpt>
      <trkpt lat="44.54541" lon="6.18155">
        <ele>941.7487793</ele>
        <time>2012-03-01T10:48:07Z</time>
      </trkpt>
      <trkpt lat="44.54555" lon="6.18188">
        <ele>941.7487793</ele>
        <time>2012-03-01T10:48:11Z</time>
      </trkpt>
      <trkpt lat="44.54562" lon="6.1821">
        <ele>939.8259277</ele>
        <time>2012-03-01T10:48:13Z</time>
      </trkpt>
      <trkpt lat="44.5458" lon="6.18236">
        <ele>937.4226074</ele>
        <time>2012-03-01T10:48:16Z</time>
      </trkpt>
      <trkpt lat="44.54594" lon="6.18251">
        <ele>936.9418945</ele>
        <time>2012-03-01T10:48:18Z</time>
      </trkpt>
      <trkpt lat="44.54633" lon="6.18326">
        <ele>932.6162109</ele>
        <time>2012-03-01T10:48:26Z</time>
      </trkpt>
      <trkpt lat="44.5466" lon="6.18393">
        <ele>929.7321777</ele>
        <time>2012-03-01T10:48:32Z</time>
      </trkpt>
      <trkpt lat="44.54668" lon="6.18413">
        <ele>928.7709961</ele>
        <time>2012-03-01T10:48:34Z</time>
      </trkpt>
      <trkpt lat="44.54678" lon="6.18452">
        <ele>925.8869629</ele>
        <time>2012-03-01T10:48:38Z</time>
      </trkpt>
      <trkpt lat="44.54701" lon="6.18473">
        <ele>924.4450684</ele>
        <time>2012-03-01T10:48:42Z</time>
      </trkpt>
      <trkpt lat="44.54722" lon="6.18479">
        <ele>923.4836426</ele>
        <time>2012-03-01T10:48:45Z</time>
      </trkpt>
      <trkpt lat="44.54734" lon="6.18525">
        <ele>921.560791</ele>
        <time>2012-03-01T10:48:51Z</time>
      </trkpt>
      <trkpt lat="44.54731" lon="6.18541">
        <ele>920.1188965</ele>
        <time>2012-03-01T10:48:53Z</time>
      </trkpt>
      <trkpt lat="44.54748" lon="6.18572">
        <ele>918.677002</ele>
        <time>2012-03-01T10:48:57Z</time>
      </trkpt>
      <trkpt lat="44.5476" lon="6.18583">
        <ele>916.7543945</ele>
        <time>2012-03-01T10:48:59Z</time>
      </trkpt>
      <trkpt lat="44.5478" lon="6.18632">
        <ele>915.3125</ele>
        <time>2012-03-01T10:49:04Z</time>
      </trkpt>
      <trkpt lat="44.54792" lon="6.1865">
        <ele>913.3898926</ele>
        <time>2012-03-01T10:49:06Z</time>
      </trkpt>
      <trkpt lat="44.54807" lon="6.18664">
        <ele>911.4672852</ele>
        <time>2012-03-01T10:49:08Z</time>
      </trkpt>
      <trkpt lat="44.54828" lon="6.18683">
        <ele>910.5058594</ele>
        <time>2012-03-01T10:49:11Z</time>
      </trkpt>
      <trkpt lat="44.54839" lon="6.187">
        <ele>909.0639648</ele>
        <time>2012-03-01T10:49:13Z</time>
      </trkpt>
      <trkpt lat="44.54855" lon="6.18731">
        <ele>907.1411133</ele>
        <time>2012-03-01T10:49:16Z</time>
      </trkpt>
      <trkpt lat="44.54888" lon="6.18792">
        <ele>902.8151855</ele>
        <time>2012-03-01T10:49:22Z</time>
      </trkpt>
      <trkpt lat="44.54894" lon="6.18801">
        <ele>902.8151855</ele>
        <time>2012-03-01T10:49:23Z</time>
      </trkpt>
      <trkpt lat="44.54923" lon="6.18826">
        <ele>900.8925781</ele>
        <time>2012-03-01T10:49:27Z</time>
      </trkpt>
      <trkpt lat="44.54952" lon="6.1884">
        <ele>898.9699707</ele>
        <time>2012-03-01T10:49:31Z</time>
      </trkpt>
      <trkpt lat="44.55" lon="6.18829">
        <ele>896.0861816</ele>
        <time>2012-03-01T10:49:39Z</time>
      </trkpt>
      <trkpt lat="44.55005" lon="6.18858">
        <ele>894.1635742</ele>
        <time>2012-03-01T10:49:44Z</time>
      </trkpt>
      <trkpt lat="44.55004" lon="6.18867">
        <ele>893.2021484</ele>
        <time>2012-03-01T10:49:45Z</time>
      </trkpt>
      <trkpt lat="44.55003" lon="6.18886">
        <ele>893.2021484</ele>
        <time>2012-03-01T10:49:47Z</time>
      </trkpt>
      <trkpt lat="44.5502" lon="6.18951">
        <ele>889.3566895</ele>
        <time>2012-03-01T10:49:54Z</time>
      </trkpt>
      <trkpt lat="44.55026" lon="6.18958">
        <ele>889.3566895</ele>
        <time>2012-03-01T10:49:55Z</time>
      </trkpt>
      <trkpt lat="44.55044" lon="6.18979">
        <ele>888.8762207</ele>
        <time>2012-03-01T10:49:58Z</time>
      </trkpt>
      <trkpt lat="44.55084" lon="6.18985">
        <ele>887.9147949</ele>
        <time>2012-03-01T10:50:04Z</time>
      </trkpt>
      <trkpt lat="44.55111" lon="6.19007">
        <ele>886.4729004</ele>
        <time>2012-03-01T10:50:12Z</time>
      </trkpt>
      <trkpt lat="44.55109" lon="6.19025">
        <ele>885.0310059</ele>
        <time>2012-03-01T10:50:14Z</time>
      </trkpt>
      <trkpt lat="44.55108" lon="6.19034">
        <ele>884.550293</ele>
        <time>2012-03-01T10:50:15Z</time>
      </trkpt>
      <trkpt lat="44.55112" lon="6.19079">
        <ele>881.185791</ele>
        <time>2012-03-01T10:50:20Z</time>
      </trkpt>
      <trkpt lat="44.55115" lon="6.19087">
        <ele>881.185791</ele>
        <time>2012-03-01T10:50:21Z</time>
      </trkpt>
      <trkpt lat="44.55131" lon="6.19111">
        <ele>879.7436523</ele>
        <time>2012-03-01T10:50:24Z</time>
      </trkpt>
      <trkpt lat="44.55158" lon="6.19139">
        <ele>877.8210449</ele>
        <time>2012-03-01T10:50:28Z</time>
      </trkpt>
      <trkpt lat="44.55168" lon="6.19152">
        <ele>875.8981934</ele>
        <time>2012-03-01T10:50:30Z</time>
      </trkpt>
      <trkpt lat="44.55173" lon="6.19157">
        <ele>874.9370117</ele>
        <time>2012-03-01T10:50:31Z</time>
      </trkpt>
      <trkpt lat="44.55205" lon="6.19155">
        <ele>872.5336914</ele>
        <time>2012-03-01T10:50:37Z</time>
      </trkpt>
      <trkpt lat="44.55213" lon="6.19143">
        <ele>872.0529785</ele>
        <time>2012-03-01T10:50:39Z</time>
      </trkpt>
      <trkpt lat="44.55235" lon="6.19147">
        <ele>870.611084</ele>
        <time>2012-03-01T10:50:44Z</time>
      </trkpt>
      <trkpt lat="44.55233" lon="6.19163">
        <ele>869.6499023</ele>
        <time>2012-03-01T10:50:47Z</time>
      </trkpt>
      <trkpt lat="44.55229" lon="6.19175">
        <ele>868.6884766</ele>
        <time>2012-03-01T10:50:49Z</time>
      </trkpt>
      <trkpt lat="44.55226" lon="6.19189">
        <ele>867.7270508</ele>
        <time>2012-03-01T10:50:51Z</time>
      </trkpt>
      <trkpt lat="44.55248" lon="6.19232">
        <ele>866.7658691</ele>
        <time>2012-03-01T10:50:57Z</time>
      </trkpt>
      <trkpt lat="44.55301" lon="6.19326">
        <ele>863.4013672</ele>
        <time>2012-03-01T10:51:10Z</time>
      </trkpt>
      <trkpt lat="44.55312" lon="6.19341">
        <ele>862.4399414</ele>
        <time>2012-03-01T10:51:12Z</time>
      </trkpt>
      <trkpt lat="44.5538" lon="6.19404">
        <ele>859.0751953</ele>
        <time>2012-03-01T10:51:22Z</time>
      </trkpt>
      <trkpt lat="44.55423" lon="6.19434">
        <ele>856.671875</ele>
        <time>2012-03-01T10:51:28Z</time>
      </trkpt>
      <trkpt lat="44.55456" lon="6.19457">
        <ele>855.7106934</ele>
        <time>2012-03-01T10:51:37Z</time>
      </trkpt>
      <trkpt lat="44.55466" lon="6.19463">
        <ele>855.2299805</ele>
        <time>2012-03-01T10:51:40Z</time>
      </trkpt>
      <trkpt lat="44.55488" lon="6.19458">
        <ele>854.2687988</ele>
        <time>2012-03-01T10:51:45Z</time>
      </trkpt>
      <trkpt lat="44.55501" lon="6.19448">
        <ele>854.2687988</ele>
        <time>2012-03-01T10:51:48Z</time>
      </trkpt>
      <trkpt lat="44.55521" lon="6.19441">
        <ele>854.2687988</ele>
        <time>2012-03-01T10:51:52Z</time>
      </trkpt>
      <trkpt lat="44.55543" lon="6.19453">
        <ele>854.7492676</ele>
        <time>2012-03-01T10:51:57Z</time>
      </trkpt>
      <trkpt lat="44.5557" lon="6.19439">
        <ele>854.2687988</ele>
        <time>2012-03-01T10:52:04Z</time>
      </trkpt>
      <trkpt lat="44.55574" lon="6.19428">
        <ele>854.7492676</ele>
        <time>2012-03-01T10:52:06Z</time>
      </trkpt>
      <trkpt lat="44.55595" lon="6.1943">
        <ele>853.7880859</ele>
        <time>2012-03-01T10:52:11Z</time>
      </trkpt>
      <trkpt lat="44.5564" lon="6.19492">
        <ele>857.1525879</ele>
        <time>2012-03-01T10:52:29Z</time>
      </trkpt>
      <trkpt lat="44.55704" lon="6.19518">
        <ele>858.1140137</ele>
        <time>2012-03-01T10:52:51Z</time>
      </trkpt>
      <trkpt lat="44.55718" lon="6.1952">
        <ele>857.6333008</ele>
        <time>2012-03-01T10:52:54Z</time>
      </trkpt>
      <trkpt lat="44.55733" lon="6.19522">
        <ele>857.1525879</ele>
        <time>2012-03-01T10:52:57Z</time>
      </trkpt>
      <trkpt lat="44.55818" lon="6.19512">
        <ele>853.7880859</ele>
        <time>2012-03-01T10:53:11Z</time>
      </trkpt>
      <trkpt lat="44.55833" lon="6.19508">
        <ele>853.307373</ele>
        <time>2012-03-01T10:53:13Z</time>
      </trkpt>
      <trkpt lat="44.55858" lon="6.19519">
        <ele>851.8654785</ele>
        <time>2012-03-01T10:53:17Z</time>
      </trkpt>
      <trkpt lat="44.55868" lon="6.1953">
        <ele>852.3459473</ele>
        <time>2012-03-01T10:53:19Z</time>
      </trkpt>
      <trkpt lat="44.55929" lon="6.19575">
        <ele>854.2687988</ele>
        <time>2012-03-01T10:53:35Z</time>
      </trkpt>
      <trkpt lat="44.5597" lon="6.19604">
        <ele>856.671875</ele>
        <time>2012-03-01T10:53:50Z</time>
      </trkpt>
      <trkpt lat="44.5603" lon="6.19649">
        <ele>858.1140137</ele>
        <time>2012-03-01T10:54:10Z</time>
      </trkpt>
      <trkpt lat="44.56089" lon="6.1969">
        <ele>857.1525879</ele>
        <time>2012-03-01T10:54:29Z</time>
      </trkpt>
      <trkpt lat="44.56089" lon="6.1969">
        <ele>859.0751953</ele>
        <time>2012-03-01T10:55:04Z</time>
      </trkpt>
      <trkpt lat="44.56098" lon="6.19697">
        <ele>858.5944824</ele>
        <time>2012-03-01T10:55:26Z</time>
      </trkpt>
      <trkpt lat="44.56141" lon="6.1973">
        <ele>857.6333008</ele>
        <time>2012-03-01T10:55:40Z</time>
      </trkpt>
      <trkpt lat="44.56181" lon="6.19774">
        <ele>855.2299805</ele>
        <time>2012-03-01T10:55:51Z</time>
      </trkpt>
      <trkpt lat="44.56203" lon="6.19786">
        <ele>853.7880859</ele>
        <time>2012-03-01T10:55:55Z</time>
      </trkpt>
      <trkpt lat="44.56276" lon="6.19809">
        <ele>855.2299805</ele>
        <time>2012-03-01T10:56:10Z</time>
      </trkpt>
      <trkpt lat="44.56293" lon="6.19776">
        <ele>856.671875</ele>
        <time>2012-03-01T10:56:20Z</time>
      </trkpt>
      <trkpt lat="44.56296" lon="6.19768">
        <ele>857.6333008</ele>
        <time>2012-03-01T10:56:22Z</time>
      </trkpt>
      <trkpt lat="44.56308" lon="6.19718">
        <ele>859.0751953</ele>
        <time>2012-03-01T10:56:35Z</time>
      </trkpt>
      <trkpt lat="44.56319" lon="6.19691">
        <ele>860.0366211</ele>
        <time>2012-03-01T10:56:44Z</time>
      </trkpt>
      <trkpt lat="44.56327" lon="6.19687">
        <ele>859.5559082</ele>
        <time>2012-03-01T10:56:52Z</time>
      </trkpt>
      <trkpt lat="44.56327" lon="6.19687">
        <ele>857.1525879</ele>
        <time>2012-03-01T10:57:06Z</time>
      </trkpt>
      <trkpt lat="44.56336" lon="6.19693">
        <ele>859.5559082</ele>
        <time>2012-03-01T10:58:04Z</time>
      </trkpt>
      <trkpt lat="44.56336" lon="6.19693">
        <ele>859.5559082</ele>
        <time>2012-03-01T10:58:08Z</time>
      </trkpt>
      <trkpt lat="44.56347" lon="6.19723">
        <ele>860.0366211</ele>
        <time>2012-03-01T10:58:16Z</time>
      </trkpt>
      <trkpt lat="44.56328" lon="6.19785">
        <ele>859.0751953</ele>
        <time>2012-03-01T10:58:29Z</time>
      </trkpt>
      <trkpt lat="44.56333" lon="6.19805">
        <ele>859.5559082</ele>
        <time>2012-03-01T10:58:34Z</time>
      </trkpt>
      <trkpt lat="44.56335" lon="6.19807">
        <ele>860.0366211</ele>
        <time>2012-03-01T10:58:35Z</time>
      </trkpt>
      <trkpt lat="44.5639" lon="6.19816">
        <ele>860.517334</ele>
        <time>2012-03-01T10:58:53Z</time>
      </trkpt>
      <trkpt lat="44.56434" lon="6.19836">
        <ele>860.9980469</ele>
        <time>2012-03-01T10:59:06Z</time>
      </trkpt>
      <trkpt lat="44.56471" lon="6.19841">
        <ele>861.9594727</ele>
        <time>2012-03-01T10:59:16Z</time>
      </trkpt>
      <trkpt lat="44.56478" lon="6.19836">
        <ele>860.9980469</ele>
        <time>2012-03-01T10:59:20Z</time>
      </trkpt>
      <trkpt lat="44.56481" lon="6.1982">
        <ele>861.9594727</ele>
        <time>2012-03-01T10:59:24Z</time>
      </trkpt>
      <trkpt lat="44.56487" lon="6.19747">
        <ele>861.4787598</ele>
        <time>2012-03-01T10:59:40Z</time>
      </trkpt>
      <trkpt lat="44.56488" lon="6.19733">
        <ele>860.517334</ele>
        <time>2012-03-01T10:59:43Z</time>
      </trkpt>
      <trkpt lat="44.56489" lon="6.19725">
        <ele>861.4787598</ele>
        <time>2012-03-01T10:59:45Z</time>
      </trkpt>
      <trkpt lat="44.56568" lon="6.19652">
        <ele>862.4399414</ele>
        <time>2012-03-01T11:00:03Z</time>
      </trkpt>
      <trkpt lat="44.56604" lon="6.19586">
        <ele>861.9594727</ele>
        <time>2012-03-01T11:00:20Z</time>
      </trkpt>
      <trkpt lat="44.56605" lon="6.19582">
        <ele>861.9594727</ele>
        <time>2012-03-01T11:00:22Z</time>
      </trkpt>
      <trkpt lat="44.56631" lon="6.19575">
        <ele>860.517334</ele>
        <time>2012-03-01T11:00:28Z</time>
      </trkpt>
      <trkpt lat="44.56649" lon="6.19582">
        <ele>859.0751953</ele>
        <time>2012-03-01T11:00:32Z</time>
      </trkpt>
      <trkpt lat="44.56711" lon="6.19583">
        <ele>860.0366211</ele>
        <time>2012-03-01T11:00:49Z</time>
      </trkpt>
      <trkpt lat="44.56715" lon="6.19581">
        <ele>860.0366211</ele>
        <time>2012-03-01T11:00:50Z</time>
      </trkpt>
      <trkpt lat="44.56748" lon="6.1953">
        <ele>859.5559082</ele>
        <time>2012-03-01T11:01:03Z</time>
      </trkpt>
      <trkpt lat="44.5676" lon="6.19502">
        <ele>859.5559082</ele>
        <time>2012-03-01T11:01:15Z</time>
      </trkpt>
      <trkpt lat="44.56765" lon="6.1949">
        <ele>859.0751953</ele>
        <time>2012-03-01T11:02:22Z</time>
      </trkpt>
      <trkpt lat="44.56779" lon="6.19462">
        <ele>860.9980469</ele>
        <time>2012-03-01T11:02:30Z</time>
      </trkpt>
      <trkpt lat="44.56814" lon="6.19375">
        <ele>861.4787598</ele>
        <time>2012-03-01T11:02:50Z</time>
      </trkpt>
      <trkpt lat="44.56862" lon="6.19259">
        <ele>859.5559082</ele>
        <time>2012-03-01T11:03:10Z</time>
      </trkpt>
      <trkpt lat="44.56919" lon="6.19143">
        <ele>857.1525879</ele>
        <time>2012-03-01T11:03:31Z</time>
      </trkpt>
      <trkpt lat="44.56951" lon="6.19087">
        <ele>855.7106934</ele>
        <time>2012-03-01T11:03:43Z</time>
      </trkpt>
      <trkpt lat="44.5697" lon="6.19057">
        <ele>857.1525879</ele>
        <time>2012-03-01T11:03:50Z</time>
      </trkpt>
      <trkpt lat="44.57022" lon="6.19005">
        <ele>857.6333008</ele>
        <time>2012-03-01T11:04:05Z</time>
      </trkpt>
      <trkpt lat="44.57058" lon="6.18952">
        <ele>857.1525879</ele>
        <time>2012-03-01T11:04:18Z</time>
      </trkpt>
      <trkpt lat="44.57105" lon="6.18873">
        <ele>858.1140137</ele>
        <time>2012-03-01T11:04:37Z</time>
      </trkpt>
      <trkpt lat="44.57169" lon="6.18825">
        <ele>858.5944824</ele>
        <time>2012-03-01T11:04:54Z</time>
      </trkpt>
      <trkpt lat="44.57216" lon="6.18788">
        <ele>860.0366211</ele>
        <time>2012-03-01T11:05:11Z</time>
      </trkpt>
      <trkpt lat="44.57235" lon="6.18725">
        <ele>860.9980469</ele>
        <time>2012-03-01T11:05:27Z</time>
      </trkpt>
      <trkpt lat="44.57252" lon="6.18615">
        <ele>861.9594727</ele>
        <time>2012-03-01T11:05:51Z</time>
      </trkpt>
      <trkpt lat="44.57281" lon="6.18538">
        <ele>862.9206543</ele>
        <time>2012-03-01T11:06:11Z</time>
      </trkpt>
      <trkpt lat="44.57293" lon="6.1849">
        <ele>865.3239746</ele>
        <time>2012-03-01T11:06:27Z</time>
      </trkpt>
      <trkpt lat="44.57306" lon="6.18433">
        <ele>867.7270508</ele>
        <time>2012-03-01T11:06:48Z</time>
      </trkpt>
      <trkpt lat="44.57317" lon="6.18383">
        <ele>871.0917969</ele>
        <time>2012-03-01T11:07:07Z</time>
      </trkpt>
      <trkpt lat="44.57338" lon="6.18324">
        <ele>873.9755859</ele>
        <time>2012-03-01T11:07:30Z</time>
      </trkpt>
      <trkpt lat="44.57368" lon="6.18289">
        <ele>875.4174805</ele>
        <time>2012-03-01T11:07:50Z</time>
      </trkpt>
      <trkpt lat="44.57402" lon="6.18255">
        <ele>877.8210449</ele>
        <time>2012-03-01T11:08:10Z</time>
      </trkpt>
      <trkpt lat="44.57422" lon="6.18237">
        <ele>880.2243652</ele>
        <time>2012-03-01T11:08:22Z</time>
      </trkpt>
      <trkpt lat="44.57452" lon="6.18202">
        <ele>881.6662598</ele>
        <time>2012-03-01T11:08:41Z</time>
      </trkpt>
      <trkpt lat="44.57473" lon="6.18167">
        <ele>884.550293</ele>
        <time>2012-03-01T11:08:59Z</time>
      </trkpt>
      <trkpt lat="44.57499" lon="6.18121">
        <ele>885.0310059</ele>
        <time>2012-03-01T11:09:20Z</time>
      </trkpt>
      <trkpt lat="44.57522" lon="6.18095">
        <ele>888.3955078</ele>
        <time>2012-03-01T11:09:35Z</time>
      </trkpt>
      <trkpt lat="44.57524" lon="6.18094">
        <ele>888.3955078</ele>
        <time>2012-03-01T11:09:36Z</time>
      </trkpt>
      <trkpt lat="44.57563" lon="6.18058">
        <ele>890.798584</ele>
        <time>2012-03-01T11:09:59Z</time>
      </trkpt>
      <trkpt lat="44.57591" lon="6.18023">
        <ele>892.2409668</ele>
        <time>2012-03-01T11:10:17Z</time>
      </trkpt>
      <trkpt lat="44.57623" lon="6.17991">
        <ele>895.1247559</ele>
        <time>2012-03-01T11:10:37Z</time>
      </trkpt>
      <trkpt lat="44.57659" lon="6.17966">
        <ele>897.5280762</ele>
        <time>2012-03-01T11:10:58Z</time>
      </trkpt>
      <trkpt lat="44.57699" lon="6.17945">
        <ele>900.4121094</ele>
        <time>2012-03-01T11:11:20Z</time>
      </trkpt>
      <trkpt lat="44.57742" lon="6.17937">
        <ele>902.3344727</ele>
        <time>2012-03-01T11:11:41Z</time>
      </trkpt>
      <trkpt lat="44.5778" lon="6.17932">
        <ele>903.7766113</ele>
        <time>2012-03-01T11:11:59Z</time>
      </trkpt>
      <trkpt lat="44.5781" lon="6.17907">
        <ele>904.737793</ele>
        <time>2012-03-01T11:12:15Z</time>
      </trkpt>
      <trkpt lat="44.57833" lon="6.17866">
        <ele>905.6992188</ele>
        <time>2012-03-01T11:12:32Z</time>
      </trkpt>
      <trkpt lat="44.57841" lon="6.17803">
        <ele>909.0639648</ele>
        <time>2012-03-01T11:12:56Z</time>
      </trkpt>
      <trkpt lat="44.5785" lon="6.17752">
        <ele>911.947998</ele>
        <time>2012-03-01T11:13:15Z</time>
      </trkpt>
      <trkpt lat="44.57865" lon="6.17715">
        <ele>914.3510742</ele>
        <time>2012-03-01T11:13:30Z</time>
      </trkpt>
      <trkpt lat="44.5788" lon="6.1767">
        <ele>916.2736816</ele>
        <time>2012-03-01T11:13:48Z</time>
      </trkpt>
      <trkpt lat="44.57902" lon="6.17632">
        <ele>919.1577148</ele>
        <time>2012-03-01T11:14:05Z</time>
      </trkpt>
      <trkpt lat="44.57917" lon="6.17614">
        <ele>919.1577148</ele>
        <time>2012-03-01T11:14:16Z</time>
      </trkpt>
      <trkpt lat="44.57919" lon="6.17612">
        <ele>923.0029297</ele>
        <time>2012-03-01T11:14:17Z</time>
      </trkpt>
      <trkpt lat="44.57921" lon="6.17611">
        <ele>923.0029297</ele>
        <time>2012-03-01T11:14:18Z</time>
      </trkpt>
      <trkpt lat="44.57961" lon="6.17596">
        <ele>924.9257813</ele>
        <time>2012-03-01T11:14:39Z</time>
      </trkpt>
      <trkpt lat="44.57972" lon="6.17604">
        <ele>926.8483887</ele>
        <time>2012-03-01T11:14:45Z</time>
      </trkpt>
      <trkpt lat="44.57994" lon="6.17623">
        <ele>928.7709961</ele>
        <time>2012-03-01T11:14:58Z</time>
      </trkpt>
      <trkpt lat="44.58003" lon="6.17621">
        <ele>929.2514648</ele>
        <time>2012-03-01T11:15:03Z</time>
      </trkpt>
      <trkpt lat="44.58012" lon="6.17581">
        <ele>932.135498</ele>
        <time>2012-03-01T11:15:20Z</time>
      </trkpt>
      <trkpt lat="44.58022" lon="6.17531">
        <ele>935.5</ele>
        <time>2012-03-01T11:15:40Z</time>
      </trkpt>
      <trkpt lat="44.58047" lon="6.17514">
        <ele>935.9807129</ele>
        <time>2012-03-01T11:15:57Z</time>
      </trkpt>
      <trkpt lat="44.58081" lon="6.17511">
        <ele>938.3840332</ele>
        <time>2012-03-01T11:16:18Z</time>
      </trkpt>
      <trkpt lat="44.58095" lon="6.17503">
        <ele>939.3452148</ele>
        <time>2012-03-01T11:16:25Z</time>
      </trkpt>
      <trkpt lat="44.58081" lon="6.17469">
        <ele>941.2680664</ele>
        <time>2012-03-01T11:16:41Z</time>
      </trkpt>
      <trkpt lat="44.58065" lon="6.17424">
        <ele>944.1520996</ele>
        <time>2012-03-01T11:17:02Z</time>
      </trkpt>
      <trkpt lat="44.58071" lon="6.17405">
        <ele>945.1132813</ele>
        <time>2012-03-01T11:17:10Z</time>
      </trkpt>
      <trkpt lat="44.58103" lon="6.17383">
        <ele>947.9973145</ele>
        <time>2012-03-01T11:17:31Z</time>
      </trkpt>
      <trkpt lat="44.58131" lon="6.17377">
        <ele>949.9199219</ele>
        <time>2012-03-01T11:17:46Z</time>
      </trkpt>
      <trkpt lat="44.58163" lon="6.17382">
        <ele>952.322998</ele>
        <time>2012-03-01T11:18:05Z</time>
      </trkpt>
      <trkpt lat="44.58173" lon="6.17384">
        <ele>953.7651367</ele>
        <time>2012-03-01T11:18:11Z</time>
      </trkpt>
      <trkpt lat="44.58216" lon="6.17389">
        <ele>956.6491699</ele>
        <time>2012-03-01T11:18:36Z</time>
      </trkpt>
      <trkpt lat="44.58226" lon="6.17392">
        <ele>957.6105957</ele>
        <time>2012-03-01T11:18:42Z</time>
      </trkpt>
      <trkpt lat="44.58235" lon="6.17391">
        <ele>958.5717773</ele>
        <time>2012-03-01T11:18:47Z</time>
      </trkpt>
      <trkpt lat="44.58241" lon="6.17382">
        <ele>958.5717773</ele>
        <time>2012-03-01T11:18:51Z</time>
      </trkpt>
      <trkpt lat="44.58233" lon="6.1734">
        <ele>960.9750977</ele>
        <time>2012-03-01T11:19:08Z</time>
      </trkpt>
      <trkpt lat="44.58212" lon="6.17305">
        <ele>964.3395996</ele>
        <time>2012-03-01T11:19:27Z</time>
      </trkpt>
      <trkpt lat="44.58204" lon="6.17268">
        <ele>967.2236328</ele>
        <time>2012-03-01T11:19:46Z</time>
      </trkpt>
      <trkpt lat="44.58233" lon="6.17255">
        <ele>970.1074219</ele>
        <time>2012-03-01T11:20:04Z</time>
      </trkpt>
      <trkpt lat="44.58234" lon="6.17255">
        <ele>970.5881348</ele>
        <time>2012-03-01T11:20:05Z</time>
      </trkpt>
      <trkpt lat="44.58245" lon="6.17253">
        <ele>971.5493164</ele>
        <time>2012-03-01T11:20:12Z</time>
      </trkpt>
      <trkpt lat="44.58274" lon="6.17244">
        <ele>973.4724121</ele>
        <time>2012-03-01T11:20:29Z</time>
      </trkpt>
      <trkpt lat="44.58306" lon="6.1723">
        <ele>976.8369141</ele>
        <time>2012-03-01T11:20:49Z</time>
      </trkpt>
      <trkpt lat="44.58342" lon="6.17211">
        <ele>979.2399902</ele>
        <time>2012-03-01T11:21:11Z</time>
      </trkpt>
      <trkpt lat="44.58346" lon="6.17179">
        <ele>979.7207031</ele>
        <time>2012-03-01T11:21:24Z</time>
      </trkpt>
      <trkpt lat="44.58319" lon="6.17166">
        <ele>982.6047363</ele>
        <time>2012-03-01T11:21:40Z</time>
      </trkpt>
      <trkpt lat="44.58292" lon="6.17158">
        <ele>984.5273438</ele>
        <time>2012-03-01T11:21:55Z</time>
      </trkpt>
      <trkpt lat="44.58261" lon="6.17148">
        <ele>986.9304199</ele>
        <time>2012-03-01T11:22:14Z</time>
      </trkpt>
      <trkpt lat="44.58234" lon="6.17115">
        <ele>989.8146973</ele>
        <time>2012-03-01T11:22:34Z</time>
      </trkpt>
      <trkpt lat="44.58225" lon="6.17082">
        <ele>991.2565918</ele>
        <time>2012-03-01T11:22:48Z</time>
      </trkpt>
      <trkpt lat="44.58238" lon="6.17026">
        <ele>995.1018066</ele>
        <time>2012-03-01T11:23:10Z</time>
      </trkpt>
      <trkpt lat="44.58252" lon="6.1697">
        <ele>998.4663086</ele>
        <time>2012-03-01T11:23:33Z</time>
      </trkpt>
      <trkpt lat="44.58263" lon="6.16929">
        <ele>1000.3891602</ele>
        <time>2012-03-01T11:23:51Z</time>
      </trkpt>
      <trkpt lat="44.58278" lon="6.1688">
        <ele>1003.7536621</ele>
        <time>2012-03-01T11:24:13Z</time>
      </trkpt>
      <trkpt lat="44.58303" lon="6.16853">
        <ele>1006.1569824</ele>
        <time>2012-03-01T11:24:33Z</time>
      </trkpt>
      <trkpt lat="44.58331" lon="6.16833">
        <ele>1008.5603027</ele>
        <time>2012-03-01T11:24:51Z</time>
      </trkpt>
      <trkpt lat="44.58353" lon="6.16802">
        <ele>1011.4443359</ele>
        <time>2012-03-01T11:25:09Z</time>
      </trkpt>
      <trkpt lat="44.58353" lon="6.16757">
        <ele>1014.328125</ele>
        <time>2012-03-01T11:25:27Z</time>
      </trkpt>
      <trkpt lat="44.58358" lon="6.16737">
        <ele>1013.3669434</ele>
        <time>2012-03-01T11:25:35Z</time>
      </trkpt>
      <trkpt lat="44.5836" lon="6.16733">
        <ele>1015.2895508</ele>
        <time>2012-03-01T11:25:37Z</time>
      </trkpt>
      <trkpt lat="44.58365" lon="6.16718">
        <ele>1017.2121582</ele>
        <time>2012-03-01T11:25:44Z</time>
      </trkpt>
      <trkpt lat="44.58371" lon="6.16705">
        <ele>1019.1347656</ele>
        <time>2012-03-01T11:25:50Z</time>
      </trkpt>
      <trkpt lat="44.58376" lon="6.16693">
        <ele>1021.0576172</ele>
        <time>2012-03-01T11:25:57Z</time>
      </trkpt>
      <trkpt lat="44.58385" lon="6.16667">
        <ele>1023.4609375</ele>
        <time>2012-03-01T11:26:09Z</time>
      </trkpt>
      <trkpt lat="44.58387" lon="6.16662">
        <ele>1020.0961914</ele>
        <time>2012-03-01T11:26:11Z</time>
      </trkpt>
      <trkpt lat="44.58387" lon="6.1666">
        <ele>1020.0961914</ele>
        <time>2012-03-01T11:26:12Z</time>
      </trkpt>
      <trkpt lat="44.58397" lon="6.16628">
        <ele>1022.0187988</ele>
        <time>2012-03-01T11:26:27Z</time>
      </trkpt>
      <trkpt lat="44.58407" lon="6.16598">
        <ele>1023.9414063</ele>
        <time>2012-03-01T11:26:42Z</time>
      </trkpt>
      <trkpt lat="44.58412" lon="6.16586">
        <ele>1027.3061523</ele>
        <time>2012-03-01T11:26:48Z</time>
      </trkpt>
      <trkpt lat="44.58413" lon="6.16584">
        <ele>1027.3061523</ele>
        <time>2012-03-01T11:26:49Z</time>
      </trkpt>
      <trkpt lat="44.58423" lon="6.16569">
        <ele>1027.3061523</ele>
        <time>2012-03-01T11:26:58Z</time>
      </trkpt>
      <trkpt lat="44.58426" lon="6.16567">
        <ele>1029.7092285</ele>
        <time>2012-03-01T11:27:00Z</time>
      </trkpt>
      <trkpt lat="44.58428" lon="6.16567">
        <ele>1029.2285156</ele>
        <time>2012-03-01T11:27:01Z</time>
      </trkpt>
      <trkpt lat="44.58435" lon="6.16567">
        <ele>1031.6318359</ele>
        <time>2012-03-01T11:27:05Z</time>
      </trkpt>
      <trkpt lat="44.58452" lon="6.16544">
        <ele>1031.1513672</ele>
        <time>2012-03-01T11:27:18Z</time>
      </trkpt>
      <trkpt lat="44.58443" lon="6.16527">
        <ele>1032.5932617</ele>
        <time>2012-03-01T11:27:26Z</time>
      </trkpt>
      <trkpt lat="44.58443" lon="6.16517">
        <ele>1032.5932617</ele>
        <time>2012-03-01T11:27:30Z</time>
      </trkpt>
      <trkpt lat="44.58443" lon="6.16504">
        <ele>1031.1513672</ele>
        <time>2012-03-01T11:27:35Z</time>
      </trkpt>
      <trkpt lat="44.58445" lon="6.16493">
        <ele>1034.0351563</ele>
        <time>2012-03-01T11:27:39Z</time>
      </trkpt>
      <trkpt lat="44.58446" lon="6.16491">
        <ele>1034.5158691</ele>
        <time>2012-03-01T11:27:40Z</time>
      </trkpt>
      <trkpt lat="44.58447" lon="6.16489">
        <ele>1034.996582</ele>
        <time>2012-03-01T11:27:41Z</time>
      </trkpt>
      <trkpt lat="44.58459" lon="6.16452">
        <ele>1034.996582</ele>
        <time>2012-03-01T11:27:58Z</time>
      </trkpt>
      <trkpt lat="44.58473" lon="6.16411">
        <ele>1037.8806152</ele>
        <time>2012-03-01T11:28:17Z</time>
      </trkpt>
      <trkpt lat="44.58499" lon="6.1638">
        <ele>1040.7644043</ele>
        <time>2012-03-01T11:28:38Z</time>
      </trkpt>
      <trkpt lat="44.58532" lon="6.16373">
        <ele>1043.6484375</ele>
        <time>2012-03-01T11:28:58Z</time>
      </trkpt>
      <trkpt lat="44.58562" lon="6.16349">
        <ele>1046.0517578</ele>
        <time>2012-03-01T11:29:18Z</time>
      </trkpt>
      <trkpt lat="44.58561" lon="6.16335">
        <ele>1047.4936523</ele>
        <time>2012-03-01T11:29:23Z</time>
      </trkpt>
      <trkpt lat="44.58555" lon="6.16328">
        <ele>1047.9743652</ele>
        <time>2012-03-01T11:29:27Z</time>
      </trkpt>
      <trkpt lat="44.58532" lon="6.16306">
        <ele>1049.8969727</ele>
        <time>2012-03-01T11:29:43Z</time>
      </trkpt>
      <trkpt lat="44.58541" lon="6.16274">
        <ele>1052.7810059</ele>
        <time>2012-03-01T11:29:59Z</time>
      </trkpt>
      <trkpt lat="44.58551" lon="6.16264">
        <ele>1053.7424316</ele>
        <time>2012-03-01T11:30:07Z</time>
      </trkpt>
      <trkpt lat="44.58556" lon="6.16261">
        <ele>1054.2231445</ele>
        <time>2012-03-01T11:30:10Z</time>
      </trkpt>
      <trkpt lat="44.58565" lon="6.16256">
        <ele>1055.1843262</ele>
        <time>2012-03-01T11:30:16Z</time>
      </trkpt>
      <trkpt lat="44.58591" lon="6.16255">
        <ele>1057.5876465</ele>
        <time>2012-03-01T11:30:32Z</time>
      </trkpt>
      <trkpt lat="44.58613" lon="6.1626">
        <ele>1059.5102539</ele>
        <time>2012-03-01T11:30:45Z</time>
      </trkpt>
      <trkpt lat="44.58614" lon="6.1626">
        <ele>1059.5102539</ele>
        <time>2012-03-01T11:30:46Z</time>
      </trkpt>
      <trkpt lat="44.58642" lon="6.16244">
        <ele>1060.9521484</ele>
        <time>2012-03-01T11:31:03Z</time>
      </trkpt>
      <trkpt lat="44.58664" lon="6.16236">
        <ele>1062.8747559</ele>
        <time>2012-03-01T11:31:17Z</time>
      </trkpt>
      <trkpt lat="44.58681" lon="6.16211">
        <ele>1064.7973633</ele>
        <time>2012-03-01T11:31:32Z</time>
      </trkpt>
      <trkpt lat="44.58664" lon="6.16188">
        <ele>1066.7199707</ele>
        <time>2012-03-01T11:31:46Z</time>
      </trkpt>
      <trkpt lat="44.58635" lon="6.1616">
        <ele>1069.604248</ele>
        <time>2012-03-01T11:32:06Z</time>
      </trkpt>
      <trkpt lat="44.58634" lon="6.16116">
        <ele>1072.0073242</ele>
        <time>2012-03-01T11:32:25Z</time>
      </trkpt>
      <trkpt lat="44.58657" lon="6.1608">
        <ele>1074.4106445</ele>
        <time>2012-03-01T11:32:46Z</time>
      </trkpt>
      <trkpt lat="44.5867" lon="6.16059">
        <ele>1075.8525391</ele>
        <time>2012-03-01T11:32:58Z</time>
      </trkpt>
      <trkpt lat="44.58673" lon="6.16052">
        <ele>1076.8139648</ele>
        <time>2012-03-01T11:33:01Z</time>
      </trkpt>
      <trkpt lat="44.58686" lon="6.1602">
        <ele>1080.1784668</ele>
        <time>2012-03-01T11:33:17Z</time>
      </trkpt>
      <trkpt lat="44.587" lon="6.15985">
        <ele>1082.1010742</ele>
        <time>2012-03-01T11:33:35Z</time>
      </trkpt>
      <trkpt lat="44.58712" lon="6.15971">
        <ele>1084.0239258</ele>
        <time>2012-03-01T11:33:43Z</time>
      </trkpt>
      <trkpt lat="44.58738" lon="6.15973">
        <ele>1084.9853516</ele>
        <time>2012-03-01T11:33:58Z</time>
      </trkpt>
      <trkpt lat="44.58742" lon="6.15945">
        <ele>1086.4272461</ele>
        <time>2012-03-01T11:34:09Z</time>
      </trkpt>
      <trkpt lat="44.58737" lon="6.15911">
        <ele>1087.8691406</ele>
        <time>2012-03-01T11:34:22Z</time>
      </trkpt>
      <trkpt lat="44.58738" lon="6.15904">
        <ele>1088.8305664</ele>
        <time>2012-03-01T11:34:25Z</time>
      </trkpt>
      <trkpt lat="44.58747" lon="6.1589">
        <ele>1090.7529297</ele>
        <time>2012-03-01T11:34:32Z</time>
      </trkpt>
      <trkpt lat="44.58764" lon="6.15866">
        <ele>1092.6757813</ele>
        <time>2012-03-01T11:34:47Z</time>
      </trkpt>
      <trkpt lat="44.58777" lon="6.15824">
        <ele>1096.0402832</ele>
        <time>2012-03-01T11:35:08Z</time>
      </trkpt>
      <trkpt lat="44.58778" lon="6.15821">
        <ele>1096.0402832</ele>
        <time>2012-03-01T11:35:09Z</time>
      </trkpt>
      <trkpt lat="44.58786" lon="6.15809">
        <ele>1097.4821777</ele>
        <time>2012-03-01T11:35:16Z</time>
      </trkpt>
      <trkpt lat="44.5879" lon="6.15803">
        <ele>1097.9628906</ele>
        <time>2012-03-01T11:35:20Z</time>
      </trkpt>
      <trkpt lat="44.58795" lon="6.15797">
        <ele>1096.5209961</ele>
        <time>2012-03-01T11:35:23Z</time>
      </trkpt>
      <trkpt lat="44.58798" lon="6.15795">
        <ele>1098.4433594</ele>
        <time>2012-03-01T11:35:25Z</time>
      </trkpt>
      <trkpt lat="44.58822" lon="6.15795">
        <ele>1099.885498</ele>
        <time>2012-03-01T11:35:38Z</time>
      </trkpt>
      <trkpt lat="44.58853" lon="6.15785">
        <ele>1102.7695313</ele>
        <time>2012-03-01T11:35:58Z</time>
      </trkpt>
      <trkpt lat="44.58854" lon="6.15767">
        <ele>1104.2116699</ele>
        <time>2012-03-01T11:36:05Z</time>
      </trkpt>
      <trkpt lat="44.58854" lon="6.15763">
        <ele>1105.6535645</ele>
        <time>2012-03-01T11:36:07Z</time>
      </trkpt>
      <trkpt lat="44.58853" lon="6.15758">
        <ele>1103.730957</ele>
        <time>2012-03-01T11:36:09Z</time>
      </trkpt>
      <trkpt lat="44.58853" lon="6.15753">
        <ele>1103.730957</ele>
        <time>2012-03-01T11:36:11Z</time>
      </trkpt>
      <trkpt lat="44.58853" lon="6.15742">
        <ele>1104.6921387</ele>
        <time>2012-03-01T11:36:16Z</time>
      </trkpt>
      <trkpt lat="44.58872" lon="6.15714">
        <ele>1106.6147461</ele>
        <time>2012-03-01T11:36:32Z</time>
      </trkpt>
      <trkpt lat="44.58897" lon="6.15698">
        <ele>1109.979248</ele>
        <time>2012-03-01T11:36:49Z</time>
      </trkpt>
      <trkpt lat="44.58921" lon="6.15673">
        <ele>1111.4213867</ele>
        <time>2012-03-01T11:37:09Z</time>
      </trkpt>
      <trkpt lat="44.58931" lon="6.15639">
        <ele>1112.8632813</ele>
        <time>2012-03-01T11:37:25Z</time>
      </trkpt>
      <trkpt lat="44.58935" lon="6.15627">
        <ele>1114.7858887</ele>
        <time>2012-03-01T11:37:30Z</time>
      </trkpt>
      <trkpt lat="44.58961" lon="6.15586">
        <ele>1117.6699219</ele>
        <time>2012-03-01T11:37:54Z</time>
      </trkpt>
      <trkpt lat="44.58963" lon="6.15585">
        <ele>1117.6699219</ele>
        <time>2012-03-01T11:37:55Z</time>
      </trkpt>
      <trkpt lat="44.58985" lon="6.15576">
        <ele>1120.5539551</ele>
        <time>2012-03-01T11:38:10Z</time>
      </trkpt>
      <trkpt lat="44.58987" lon="6.15576">
        <ele>1121.034668</ele>
        <time>2012-03-01T11:38:11Z</time>
      </trkpt>
      <trkpt lat="44.59" lon="6.15532">
        <ele>1122.9572754</ele>
        <time>2012-03-01T11:38:28Z</time>
      </trkpt>
      <trkpt lat="44.59007" lon="6.15508">
        <ele>1124.8798828</ele>
        <time>2012-03-01T11:38:40Z</time>
      </trkpt>
      <trkpt lat="44.59007" lon="6.15508">
        <ele>1125.3603516</ele>
        <time>2012-03-01T11:39:03Z</time>
      </trkpt>
      <trkpt lat="44.59007" lon="6.15508">
        <ele>1124.8798828</ele>
        <time>2012-03-01T11:41:56Z</time>
      </trkpt>
      <trkpt lat="44.59016" lon="6.15493">
        <ele>1126.3217773</ele>
        <time>2012-03-01T11:42:03Z</time>
      </trkpt>
      <trkpt lat="44.59026" lon="6.15483">
        <ele>1126.8024902</ele>
        <time>2012-03-01T11:42:08Z</time>
      </trkpt>
      <trkpt lat="44.59054" lon="6.15456">
        <ele>1129.6862793</ele>
        <time>2012-03-01T11:42:25Z</time>
      </trkpt>
      <trkpt lat="44.5906" lon="6.15451">
        <ele>1128.2443848</ele>
        <time>2012-03-01T11:42:29Z</time>
      </trkpt>
      <trkpt lat="44.59064" lon="6.15449">
        <ele>1129.6862793</ele>
        <time>2012-03-01T11:42:31Z</time>
      </trkpt>
      <trkpt lat="44.59091" lon="6.15423">
        <ele>1132.0898438</ele>
        <time>2012-03-01T11:42:50Z</time>
      </trkpt>
      <trkpt lat="44.59122" lon="6.15398">
        <ele>1134.4931641</ele>
        <time>2012-03-01T11:43:12Z</time>
      </trkpt>
      <trkpt lat="44.59129" lon="6.15394">
        <ele>1135.4543457</ele>
        <time>2012-03-01T11:43:17Z</time>
      </trkpt>
      <trkpt lat="44.59151" lon="6.15375">
        <ele>1137.857666</ele>
        <time>2012-03-01T11:43:33Z</time>
      </trkpt>
      <trkpt lat="44.59171" lon="6.15342">
        <ele>1141.222168</ele>
        <time>2012-03-01T11:43:53Z</time>
      </trkpt>
      <trkpt lat="44.59178" lon="6.15335">
        <ele>1141.7028809</ele>
        <time>2012-03-01T11:43:58Z</time>
      </trkpt>
      <trkpt lat="44.59185" lon="6.15329">
        <ele>1142.6643066</ele>
        <time>2012-03-01T11:44:02Z</time>
      </trkpt>
      <trkpt lat="44.5919" lon="6.15326">
        <ele>1142.1835938</ele>
        <time>2012-03-01T11:44:05Z</time>
      </trkpt>
      <trkpt lat="44.59218" lon="6.1532">
        <ele>1145.5480957</ele>
        <time>2012-03-01T11:44:21Z</time>
      </trkpt>
      <trkpt lat="44.59242" lon="6.15315">
        <ele>1148.9128418</ele>
        <time>2012-03-01T11:44:37Z</time>
      </trkpt>
      <trkpt lat="44.59244" lon="6.15314">
        <ele>1148.9128418</ele>
        <time>2012-03-01T11:44:38Z</time>
      </trkpt>
      <trkpt lat="44.59273" lon="6.15298">
        <ele>1150.3549805</ele>
        <time>2012-03-01T11:44:59Z</time>
      </trkpt>
      <trkpt lat="44.59303" lon="6.15271">
        <ele>1153.2387695</ele>
        <time>2012-03-01T11:45:21Z</time>
      </trkpt>
      <trkpt lat="44.59329" lon="6.15241">
        <ele>1156.6032715</ele>
        <time>2012-03-01T11:45:42Z</time>
      </trkpt>
      <trkpt lat="44.59337" lon="6.15233">
        <ele>1157.0839844</ele>
        <time>2012-03-01T11:45:48Z</time>
      </trkpt>
      <trkpt lat="44.59363" lon="6.15213">
        <ele>1160.4484863</ele>
        <time>2012-03-01T11:46:08Z</time>
      </trkpt>
      <trkpt lat="44.59388" lon="6.15191">
        <ele>1162.8518066</ele>
        <time>2012-03-01T11:46:27Z</time>
      </trkpt>
      <trkpt lat="44.59397" lon="6.1518">
        <ele>1163.8129883</ele>
        <time>2012-03-01T11:46:34Z</time>
      </trkpt>
      <trkpt lat="44.59431" lon="6.15161">
        <ele>1165.736084</ele>
        <time>2012-03-01T11:46:53Z</time>
      </trkpt>
      <trkpt lat="44.59433" lon="6.15161">
        <ele>1165.736084</ele>
        <time>2012-03-01T11:46:54Z</time>
      </trkpt>
      <trkpt lat="44.59465" lon="6.15154">
        <ele>1167.1779785</ele>
        <time>2012-03-01T11:47:13Z</time>
      </trkpt>
      <trkpt lat="44.59473" lon="6.15149">
        <ele>1167.6584473</ele>
        <time>2012-03-01T11:47:17Z</time>
      </trkpt>
      <trkpt lat="44.59505" lon="6.1513">
        <ele>1170.0617676</ele>
        <time>2012-03-01T11:47:36Z</time>
      </trkpt>
      <trkpt lat="44.59526" lon="6.15118">
        <ele>1171.5036621</ele>
        <time>2012-03-01T11:47:49Z</time>
      </trkpt>
      <trkpt lat="44.59538" lon="6.15108">
        <ele>1172.9458008</ele>
        <time>2012-03-01T11:47:59Z</time>
      </trkpt>
      <trkpt lat="44.5957" lon="6.15081">
        <ele>1176.3103027</ele>
        <time>2012-03-01T11:48:22Z</time>
      </trkpt>
      <trkpt lat="44.59598" lon="6.15057">
        <ele>1178.713623</ele>
        <time>2012-03-01T11:48:42Z</time>
      </trkpt>
      <trkpt lat="44.59619" lon="6.15034">
        <ele>1181.1171875</ele>
        <time>2012-03-01T11:48:58Z</time>
      </trkpt>
      <trkpt lat="44.59649" lon="6.14992">
        <ele>1184.9624023</ele>
        <time>2012-03-01T11:49:24Z</time>
      </trkpt>
      <trkpt lat="44.59664" lon="6.14973">
        <ele>1185.923584</ele>
        <time>2012-03-01T11:49:36Z</time>
      </trkpt>
      <trkpt lat="44.59681" lon="6.14934">
        <ele>1187.8461914</ele>
        <time>2012-03-01T11:49:56Z</time>
      </trkpt>
      <trkpt lat="44.59704" lon="6.14873">
        <ele>1190.2495117</ele>
        <time>2012-03-01T11:50:19Z</time>
      </trkpt>
      <trkpt lat="44.59733" lon="6.14822">
        <ele>1192.652832</ele>
        <time>2012-03-01T11:50:39Z</time>
      </trkpt>
      <trkpt lat="44.59767" lon="6.14765">
        <ele>1194.5751953</ele>
        <time>2012-03-01T11:51:01Z</time>
      </trkpt>
      <trkpt lat="44.59799" lon="6.14721">
        <ele>1195.0559082</ele>
        <time>2012-03-01T11:51:18Z</time>
      </trkpt>
      <trkpt lat="44.59843" lon="6.14658">
        <ele>1197.4594727</ele>
        <time>2012-03-01T11:51:41Z</time>
      </trkpt>
      <trkpt lat="44.59881" lon="6.14613">
        <ele>1198.4206543</ele>
        <time>2012-03-01T11:52:00Z</time>
      </trkpt>
      <trkpt lat="44.5994" lon="6.14563">
        <ele>1200.3435059</ele>
        <time>2012-03-01T11:52:24Z</time>
      </trkpt>
      <trkpt lat="44.59973" lon="6.14584">
        <ele>1201.7854004</ele>
        <time>2012-03-01T11:52:37Z</time>
      </trkpt>
      <trkpt lat="44.60004" lon="6.14605">
        <ele>1203.2272949</ele>
        <time>2012-03-01T11:52:53Z</time>
      </trkpt>
      <trkpt lat="44.60035" lon="6.14595">
        <ele>1205.1499023</ele>
        <time>2012-03-01T11:53:08Z</time>
      </trkpt>
      <trkpt lat="44.60063" lon="6.14575">
        <ele>1207.0725098</ele>
        <time>2012-03-01T11:53:25Z</time>
      </trkpt>
      <trkpt lat="44.60081" lon="6.14529">
        <ele>1209.4758301</ele>
        <time>2012-03-01T11:53:43Z</time>
      </trkpt>
      <trkpt lat="44.60108" lon="6.14504">
        <ele>1210.9177246</ele>
        <time>2012-03-01T11:53:58Z</time>
      </trkpt>
      <trkpt lat="44.60126" lon="6.14489">
        <ele>1212.3598633</ele>
        <time>2012-03-01T11:54:08Z</time>
      </trkpt>
      <trkpt lat="44.60153" lon="6.14466">
        <ele>1215.7246094</ele>
        <time>2012-03-01T11:54:25Z</time>
      </trkpt>
      <trkpt lat="44.60155" lon="6.14465">
        <ele>1215.7246094</ele>
        <time>2012-03-01T11:54:26Z</time>
      </trkpt>
      <trkpt lat="44.60189" lon="6.1443">
        <ele>1217.6469727</ele>
        <time>2012-03-01T11:54:48Z</time>
      </trkpt>
      <trkpt lat="44.60213" lon="6.14395">
        <ele>1220.5310059</ele>
        <time>2012-03-01T11:55:06Z</time>
      </trkpt>
      <trkpt lat="44.60238" lon="6.14353">
        <ele>1223.8955078</ele>
        <time>2012-03-01T11:55:26Z</time>
      </trkpt>
      <trkpt lat="44.60271" lon="6.14324">
        <ele>1225.8181152</ele>
        <time>2012-03-01T11:55:45Z</time>
      </trkpt>
      <trkpt lat="44.60315" lon="6.1431">
        <ele>1228.2216797</ele>
        <time>2012-03-01T11:56:07Z</time>
      </trkpt>
      <trkpt lat="44.60324" lon="6.14299">
        <ele>1228.7023926</ele>
        <time>2012-03-01T11:56:13Z</time>
      </trkpt>
      <trkpt lat="44.6036" lon="6.14256">
        <ele>1232.0668945</ele>
        <time>2012-03-01T11:56:37Z</time>
      </trkpt>
      <trkpt lat="44.604" lon="6.1424">
        <ele>1233.989502</ele>
        <time>2012-03-01T11:56:57Z</time>
      </trkpt>
      <trkpt lat="44.60436" lon="6.14223">
        <ele>1236.3928223</ele>
        <time>2012-03-01T11:57:16Z</time>
      </trkpt>
      <trkpt lat="44.6045" lon="6.14217">
        <ele>1238.7961426</ele>
        <time>2012-03-01T11:57:24Z</time>
      </trkpt>
      <trkpt lat="44.6047" lon="6.14213">
        <ele>1238.7961426</ele>
        <time>2012-03-01T11:57:34Z</time>
      </trkpt>
      <trkpt lat="44.60494" lon="6.14212">
        <ele>1241.6799316</ele>
        <time>2012-03-01T11:57:45Z</time>
      </trkpt>
      <trkpt lat="44.60521" lon="6.1421">
        <ele>1245.0446777</ele>
        <time>2012-03-01T11:58:00Z</time>
      </trkpt>
      <trkpt lat="44.6055" lon="6.14207">
        <ele>1247.447998</ele>
        <time>2012-03-01T11:58:16Z</time>
      </trkpt>
      <trkpt lat="44.60568" lon="6.14205">
        <ele>1248.4091797</ele>
        <time>2012-03-01T11:58:28Z</time>
      </trkpt>
      <trkpt lat="44.60593" lon="6.142">
        <ele>1250.3320313</ele>
        <time>2012-03-01T11:58:43Z</time>
      </trkpt>
      <trkpt lat="44.60598" lon="6.14198">
        <ele>1251.7739258</ele>
        <time>2012-03-01T11:58:46Z</time>
      </trkpt>
      <trkpt lat="44.60636" lon="6.14189">
        <ele>1253.6965332</ele>
        <time>2012-03-01T11:59:08Z</time>
      </trkpt>
      <trkpt lat="44.60669" lon="6.1418">
        <ele>1256.0996094</ele>
        <time>2012-03-01T11:59:26Z</time>
      </trkpt>
      <trkpt lat="44.60711" lon="6.14164">
        <ele>1258.5029297</ele>
        <time>2012-03-01T11:59:49Z</time>
      </trkpt>
      <trkpt lat="44.60759" lon="6.14137">
        <ele>1259.4643555</ele>
        <time>2012-03-01T12:00:12Z</time>
      </trkpt>
      <trkpt lat="44.60817" lon="6.14105">
        <ele>1261.387207</ele>
        <time>2012-03-01T12:00:35Z</time>
      </trkpt>
      <trkpt lat="44.60884" lon="6.14087">
        <ele>1263.3098145</ele>
        <time>2012-03-01T12:00:58Z</time>
      </trkpt>
      <trkpt lat="44.60937" lon="6.14063">
        <ele>1265.7131348</ele>
        <time>2012-03-01T12:01:16Z</time>
      </trkpt>
      <trkpt lat="44.60944" lon="6.14058">
        <ele>1267.1550293</ele>
        <time>2012-03-01T12:01:19Z</time>
      </trkpt>
      <trkpt lat="44.60983" lon="6.14029">
        <ele>1269.0776367</ele>
        <time>2012-03-01T12:01:37Z</time>
      </trkpt>
      <trkpt lat="44.6104" lon="6.13979">
        <ele>1271.9614258</ele>
        <time>2012-03-01T12:02:01Z</time>
      </trkpt>
      <trkpt lat="44.6108" lon="6.1392">
        <ele>1274.845459</ele>
        <time>2012-03-01T12:02:23Z</time>
      </trkpt>
      <trkpt lat="44.61133" lon="6.13901">
        <ele>1274.845459</ele>
        <time>2012-03-01T12:02:40Z</time>
      </trkpt>
      <trkpt lat="44.61189" lon="6.13898">
        <ele>1274.845459</ele>
        <time>2012-03-01T12:02:56Z</time>
      </trkpt>
      <trkpt lat="44.61273" lon="6.13881">
        <ele>1271.4807129</ele>
        <time>2012-03-01T12:03:13Z</time>
      </trkpt>
      <trkpt lat="44.61339" lon="6.13851">
        <ele>1269.5583496</ele>
        <time>2012-03-01T12:03:24Z</time>
      </trkpt>
      <trkpt lat="44.61427" lon="6.13786">
        <ele>1266.1936035</ele>
        <time>2012-03-01T12:03:40Z</time>
      </trkpt>
      <trkpt lat="44.61441" lon="6.13775">
        <ele>1266.1936035</ele>
        <time>2012-03-01T12:03:48Z</time>
      </trkpt>
      <trkpt lat="44.61452" lon="6.13765">
        <ele>1265.7131348</ele>
        <time>2012-03-01T12:03:53Z</time>
      </trkpt>
      <trkpt lat="44.61469" lon="6.13755">
        <ele>1266.1936035</ele>
        <time>2012-03-01T12:04:03Z</time>
      </trkpt>
      <trkpt lat="44.61469" lon="6.13755">
        <ele>1266.6743164</ele>
        <time>2012-03-01T12:06:24Z</time>
      </trkpt>
      <trkpt lat="44.61469" lon="6.13755">
        <ele>1266.6743164</ele>
        <time>2012-03-01T12:06:58Z</time>
      </trkpt>
      <trkpt lat="44.61463" lon="6.13773">
        <ele>1267.1550293</ele>
        <time>2012-03-01T12:07:02Z</time>
      </trkpt>
      <trkpt lat="44.61437" lon="6.13741">
        <ele>1267.635498</ele>
        <time>2012-03-01T12:07:15Z</time>
      </trkpt>
      <trkpt lat="44.61418" lon="6.13713">
        <ele>1269.0776367</ele>
        <time>2012-03-01T12:07:24Z</time>
      </trkpt>
      <trkpt lat="44.61403" lon="6.13689">
        <ele>1268.5969238</ele>
        <time>2012-03-01T12:07:33Z</time>
      </trkpt>
      <trkpt lat="44.61372" lon="6.13634">
        <ele>1271.0002441</ele>
        <time>2012-03-01T12:07:54Z</time>
      </trkpt>
      <trkpt lat="44.61341" lon="6.13584">
        <ele>1273.8840332</ele>
        <time>2012-03-01T12:08:13Z</time>
      </trkpt>
      <trkpt lat="44.61302" lon="6.13516">
        <ele>1274.3647461</ele>
        <time>2012-03-01T12:08:37Z</time>
      </trkpt>
      <trkpt lat="44.6126" lon="6.1347">
        <ele>1274.845459</ele>
        <time>2012-03-01T12:08:57Z</time>
      </trkpt>
      <trkpt lat="44.61205" lon="6.13422">
        <ele>1275.3259277</ele>
        <time>2012-03-01T12:09:17Z</time>
      </trkpt>
      <trkpt lat="44.61168" lon="6.13358">
        <ele>1274.3647461</ele>
        <time>2012-03-01T12:09:32Z</time>
      </trkpt>
      <trkpt lat="44.61168" lon="6.13348">
        <ele>1275.8066406</ele>
        <time>2012-03-01T12:09:34Z</time>
      </trkpt>
      <trkpt lat="44.6117" lon="6.13247">
        <ele>1275.3259277</ele>
        <time>2012-03-01T12:09:52Z</time>
      </trkpt>
      <trkpt lat="44.61171" lon="6.13149">
        <ele>1272.4421387</ele>
        <time>2012-03-01T12:10:07Z</time>
      </trkpt>
      <trkpt lat="44.61168" lon="6.13144">
        <ele>1272.9228516</ele>
        <time>2012-03-01T12:10:08Z</time>
      </trkpt>
      <trkpt lat="44.61144" lon="6.13102">
        <ele>1271.9614258</ele>
        <time>2012-03-01T12:10:16Z</time>
      </trkpt>
      <trkpt lat="44.61108" lon="6.13045">
        <ele>1271.9614258</ele>
        <time>2012-03-01T12:10:27Z</time>
      </trkpt>
      <trkpt lat="44.6106" lon="6.12924">
        <ele>1269.0776367</ele>
        <time>2012-03-01T12:10:44Z</time>
      </trkpt>
      <trkpt lat="44.61054" lon="6.12824">
        <ele>1265.2324219</ele>
        <time>2012-03-01T12:10:54Z</time>
      </trkpt>
      <trkpt lat="44.61054" lon="6.12759">
        <ele>1263.3098145</ele>
        <time>2012-03-01T12:11:00Z</time>
      </trkpt>
      <trkpt lat="44.61046" lon="6.12689">
        <ele>1261.387207</ele>
        <time>2012-03-01T12:11:06Z</time>
      </trkpt>
      <trkpt lat="44.61057" lon="6.12635">
        <ele>1259.4643555</ele>
        <time>2012-03-01T12:11:11Z</time>
      </trkpt>
      <trkpt lat="44.61078" lon="6.12617">
        <ele>1258.5029297</ele>
        <time>2012-03-01T12:11:14Z</time>
      </trkpt>
      <trkpt lat="44.61093" lon="6.12606">
        <ele>1257.541748</ele>
        <time>2012-03-01T12:11:16Z</time>
      </trkpt>
      <trkpt lat="44.61114" lon="6.12585">
        <ele>1255.6191406</ele>
        <time>2012-03-01T12:11:19Z</time>
      </trkpt>
      <trkpt lat="44.6114" lon="6.12539">
        <ele>1255.1384277</ele>
        <time>2012-03-01T12:11:24Z</time>
      </trkpt>
      <trkpt lat="44.61148" lon="6.12517">
        <ele>1254.6577148</ele>
        <time>2012-03-01T12:11:26Z</time>
      </trkpt>
      <trkpt lat="44.61156" lon="6.12471">
        <ele>1253.2158203</ele>
        <time>2012-03-01T12:11:30Z</time>
      </trkpt>
      <trkpt lat="44.61155" lon="6.12397">
        <ele>1249.3706055</ele>
        <time>2012-03-01T12:11:36Z</time>
      </trkpt>
      <trkpt lat="44.61154" lon="6.12384">
        <ele>1249.3706055</ele>
        <time>2012-03-01T12:11:37Z</time>
      </trkpt>
      <trkpt lat="44.61149" lon="6.12261">
        <ele>1245.5253906</ele>
        <time>2012-03-01T12:11:47Z</time>
      </trkpt>
      <trkpt lat="44.61147" lon="6.12224">
        <ele>1245.0446777</ele>
        <time>2012-03-01T12:11:51Z</time>
      </trkpt>
      <trkpt lat="44.61111" lon="6.12111">
        <ele>1241.1992188</ele>
        <time>2012-03-01T12:12:04Z</time>
      </trkpt>
      <trkpt lat="44.61082" lon="6.12042">
        <ele>1239.2766113</ele>
        <time>2012-03-01T12:12:12Z</time>
      </trkpt>
      <trkpt lat="44.61059" lon="6.11983">
        <ele>1236.3928223</ele>
        <time>2012-03-01T12:12:19Z</time>
      </trkpt>
      <trkpt lat="44.61048" lon="6.11965">
        <ele>1235.4313965</ele>
        <time>2012-03-01T12:12:21Z</time>
      </trkpt>
      <trkpt lat="44.61034" lon="6.1195">
        <ele>1234.9509277</ele>
        <time>2012-03-01T12:12:23Z</time>
      </trkpt>
      <trkpt lat="44.60993" lon="6.11925">
        <ele>1232.0668945</ele>
        <time>2012-03-01T12:12:28Z</time>
      </trkpt>
      <trkpt lat="44.60951" lon="6.11895">
        <ele>1228.2216797</ele>
        <time>2012-03-01T12:12:33Z</time>
      </trkpt>
      <trkpt lat="44.60933" lon="6.11882">
        <ele>1226.779541</ele>
        <time>2012-03-01T12:12:35Z</time>
      </trkpt>
      <trkpt lat="44.60895" lon="6.11864">
        <ele>1224.8569336</ele>
        <time>2012-03-01T12:12:39Z</time>
      </trkpt>
      <trkpt lat="44.60865" lon="6.11847">
        <ele>1221.9729004</ele>
        <time>2012-03-01T12:12:42Z</time>
      </trkpt>
      <trkpt lat="44.60846" lon="6.11838">
        <ele>1221.0117188</ele>
        <time>2012-03-01T12:12:44Z</time>
      </trkpt>
      <trkpt lat="44.60804" lon="6.11831">
        <ele>1216.685791</ele>
        <time>2012-03-01T12:12:48Z</time>
      </trkpt>
      <trkpt lat="44.60794" lon="6.1183">
        <ele>1216.685791</ele>
        <time>2012-03-01T12:12:49Z</time>
      </trkpt>
      <trkpt lat="44.60774" lon="6.11828">
        <ele>1215.2438965</ele>
        <time>2012-03-01T12:12:51Z</time>
      </trkpt>
      <trkpt lat="44.6074" lon="6.11821">
        <ele>1211.8791504</ele>
        <time>2012-03-01T12:12:55Z</time>
      </trkpt>
      <trkpt lat="44.60732" lon="6.11818">
        <ele>1211.8791504</ele>
        <time>2012-03-01T12:12:56Z</time>
      </trkpt>
      <trkpt lat="44.60677" lon="6.11809">
        <ele>1208.5144043</ele>
        <time>2012-03-01T12:13:03Z</time>
      </trkpt>
      <trkpt lat="44.6066" lon="6.11808">
        <ele>1207.5532227</ele>
        <time>2012-03-01T12:13:05Z</time>
      </trkpt>
      <trkpt lat="44.60642" lon="6.11803">
        <ele>1206.5917969</ele>
        <time>2012-03-01T12:13:07Z</time>
      </trkpt>
      <trkpt lat="44.60617" lon="6.11785">
        <ele>1204.6691895</ele>
        <time>2012-03-01T12:13:10Z</time>
      </trkpt>
      <trkpt lat="44.60604" lon="6.11768">
        <ele>1203.7080078</ele>
        <time>2012-03-01T12:13:12Z</time>
      </trkpt>
      <trkpt lat="44.60577" lon="6.11728">
        <ele>1201.7854004</ele>
        <time>2012-03-01T12:13:16Z</time>
      </trkpt>
      <trkpt lat="44.60554" lon="6.11702">
        <ele>1199.862793</ele>
        <time>2012-03-01T12:13:19Z</time>
      </trkpt>
      <trkpt lat="44.60539" lon="6.11685">
        <ele>1198.4206543</ele>
        <time>2012-03-01T12:13:21Z</time>
      </trkpt>
      <trkpt lat="44.60508" lon="6.11652">
        <ele>1195.0559082</ele>
        <time>2012-03-01T12:13:25Z</time>
      </trkpt>
      <trkpt lat="44.60499" lon="6.11647">
        <ele>1195.0559082</ele>
        <time>2012-03-01T12:13:26Z</time>
      </trkpt>
      <trkpt lat="44.6048" lon="6.11638">
        <ele>1193.6140137</ele>
        <time>2012-03-01T12:13:28Z</time>
      </trkpt>
      <trkpt lat="44.60442" lon="6.11623">
        <ele>1190.2495117</ele>
        <time>2012-03-01T12:13:32Z</time>
      </trkpt>
      <trkpt lat="44.60433" lon="6.11617">
        <ele>1190.2495117</ele>
        <time>2012-03-01T12:13:33Z</time>
      </trkpt>
      <trkpt lat="44.60416" lon="6.116">
        <ele>1188.8076172</ele>
        <time>2012-03-01T12:13:35Z</time>
      </trkpt>
      <trkpt lat="44.60392" lon="6.1156">
        <ele>1185.4428711</ele>
        <time>2012-03-01T12:13:39Z</time>
      </trkpt>
      <trkpt lat="44.60387" lon="6.11547">
        <ele>1185.4428711</ele>
        <time>2012-03-01T12:13:40Z</time>
      </trkpt>
      <trkpt lat="44.60383" lon="6.11535">
        <ele>1184.0009766</ele>
        <time>2012-03-01T12:13:41Z</time>
      </trkpt>
      <trkpt lat="44.60369" lon="6.11465">
        <ele>1181.1171875</ele>
        <time>2012-03-01T12:13:46Z</time>
      </trkpt>
      <trkpt lat="44.60361" lon="6.11423">
        <ele>1178.2329102</ele>
        <time>2012-03-01T12:13:49Z</time>
      </trkpt>
      <trkpt lat="44.60357" lon="6.11398">
        <ele>1176.3103027</ele>
        <time>2012-03-01T12:13:51Z</time>
      </trkpt>
      <trkpt lat="44.6035" lon="6.11376">
        <ele>1174.8684082</ele>
        <time>2012-03-01T12:13:53Z</time>
      </trkpt>
      <trkpt lat="44.6034" lon="6.11353">
        <ele>1171.984375</ele>
        <time>2012-03-01T12:13:55Z</time>
      </trkpt>
      <trkpt lat="44.60299" lon="6.11306">
        <ele>1169.5812988</ele>
        <time>2012-03-01T12:14:00Z</time>
      </trkpt>
      <trkpt lat="44.60289" lon="6.11299">
        <ele>1167.6584473</ele>
        <time>2012-03-01T12:14:01Z</time>
      </trkpt>
      <trkpt lat="44.60268" lon="6.11288">
        <ele>1165.736084</ele>
        <time>2012-03-01T12:14:03Z</time>
      </trkpt>
      <trkpt lat="44.60228" lon="6.11264">
        <ele>1163.3325195</ele>
        <time>2012-03-01T12:14:07Z</time>
      </trkpt>
      <trkpt lat="44.60212" lon="6.11253">
        <ele>1159.9677734</ele>
        <time>2012-03-01T12:14:09Z</time>
      </trkpt>
      <trkpt lat="44.60205" lon="6.11248">
        <ele>1159.9677734</ele>
        <time>2012-03-01T12:14:10Z</time>
      </trkpt>
      <trkpt lat="44.60198" lon="6.11242">
        <ele>1159.0065918</ele>
        <time>2012-03-01T12:14:11Z</time>
      </trkpt>
      <trkpt lat="44.60179" lon="6.11187">
        <ele>1156.6032715</ele>
        <time>2012-03-01T12:14:17Z</time>
      </trkpt>
      <trkpt lat="44.60182" lon="6.11167">
        <ele>1155.161377</ele>
        <time>2012-03-01T12:14:19Z</time>
      </trkpt>
      <trkpt lat="44.60203" lon="6.11133">
        <ele>1153.2387695</ele>
        <time>2012-03-01T12:14:23Z</time>
      </trkpt>
      <trkpt lat="44.60215" lon="6.11121">
        <ele>1151.3161621</ele>
        <time>2012-03-01T12:14:25Z</time>
      </trkpt>
      <trkpt lat="44.60216" lon="6.11074">
        <ele>1149.3935547</ele>
        <time>2012-03-01T12:14:31Z</time>
      </trkpt>
      <trkpt lat="44.60193" lon="6.1107">
        <ele>1148.9128418</ele>
        <time>2012-03-01T12:14:35Z</time>
      </trkpt>
      <trkpt lat="44.60125" lon="6.11078">
        <ele>1147.951416</ele>
        <time>2012-03-01T12:14:46Z</time>
      </trkpt>
      <trkpt lat="44.6009" lon="6.11055">
        <ele>1146.9899902</ele>
        <time>2012-03-01T12:14:52Z</time>
      </trkpt>
      <trkpt lat="44.60079" lon="6.11043">
        <ele>1146.0288086</ele>
        <time>2012-03-01T12:14:54Z</time>
      </trkpt>
      <trkpt lat="44.6004" lon="6.10996">
        <ele>1144.1062012</ele>
        <time>2012-03-01T12:15:01Z</time>
      </trkpt>
      <trkpt lat="44.59976" lon="6.10923">
        <ele>1140.7414551</ele>
        <time>2012-03-01T12:15:11Z</time>
      </trkpt>
      <trkpt lat="44.59923" lon="6.10869">
        <ele>1138.3383789</ele>
        <time>2012-03-01T12:15:19Z</time>
      </trkpt>
      <trkpt lat="44.59887" lon="6.10841">
        <ele>1135.9350586</ele>
        <time>2012-03-01T12:15:24Z</time>
      </trkpt>
      <trkpt lat="44.59865" lon="6.10823">
        <ele>1133.5317383</ele>
        <time>2012-03-01T12:15:27Z</time>
      </trkpt>
      <trkpt lat="44.5984" lon="6.10787">
        <ele>1131.6088867</ele>
        <time>2012-03-01T12:15:31Z</time>
      </trkpt>
      <trkpt lat="44.59831" lon="6.10748">
        <ele>1129.6862793</ele>
        <time>2012-03-01T12:15:34Z</time>
      </trkpt>
      <trkpt lat="44.59822" lon="6.10693">
        <ele>1127.2832031</ele>
        <time>2012-03-01T12:15:38Z</time>
      </trkpt>
      <trkpt lat="44.59817" lon="6.10666">
        <ele>1125.3603516</ele>
        <time>2012-03-01T12:15:40Z</time>
      </trkpt>
      <trkpt lat="44.59807" lon="6.10612">
        <ele>1122.4765625</ele>
        <time>2012-03-01T12:15:44Z</time>
      </trkpt>
      <trkpt lat="44.59804" lon="6.10598">
        <ele>1122.4765625</ele>
        <time>2012-03-01T12:15:45Z</time>
      </trkpt>
      <trkpt lat="44.59798" lon="6.10572">
        <ele>1121.034668</ele>
        <time>2012-03-01T12:15:47Z</time>
      </trkpt>
      <trkpt lat="44.59784" lon="6.10509">
        <ele>1117.6699219</ele>
        <time>2012-03-01T12:15:52Z</time>
      </trkpt>
      <trkpt lat="44.59781" lon="6.10484">
        <ele>1116.7087402</ele>
        <time>2012-03-01T12:15:54Z</time>
      </trkpt>
      <trkpt lat="44.59773" lon="6.10419">
        <ele>1113.3439941</ele>
        <time>2012-03-01T12:15:59Z</time>
      </trkpt>
      <trkpt lat="44.59767" lon="6.10394">
        <ele>1112.3825684</ele>
        <time>2012-03-01T12:16:01Z</time>
      </trkpt>
      <trkpt lat="44.59751" lon="6.10343">
        <ele>1109.4987793</ele>
        <time>2012-03-01T12:16:05Z</time>
      </trkpt>
      <trkpt lat="44.59739" lon="6.10305">
        <ele>1107.5761719</ele>
        <time>2012-03-01T12:16:08Z</time>
      </trkpt>
      <trkpt lat="44.59701" lon="6.10179">
        <ele>1104.2116699</ele>
        <time>2012-03-01T12:16:20Z</time>
      </trkpt>
      <trkpt lat="44.59695" lon="6.10158">
        <ele>1103.2502441</ele>
        <time>2012-03-01T12:16:22Z</time>
      </trkpt>
      <trkpt lat="44.59692" lon="6.10149">
        <ele>1102.2888184</ele>
        <time>2012-03-01T12:16:23Z</time>
      </trkpt>
      <trkpt lat="44.59671" lon="6.10115">
        <ele>1100.3664551</ele>
        <time>2012-03-01T12:16:27Z</time>
      </trkpt>
      <trkpt lat="44.59656" lon="6.10102">
        <ele>1099.4047852</ele>
        <time>2012-03-01T12:16:29Z</time>
      </trkpt>
      <trkpt lat="44.59644" lon="6.10086">
        <ele>1098.4433594</ele>
        <time>2012-03-01T12:16:31Z</time>
      </trkpt>
      <trkpt lat="44.59627" lon="6.10042">
        <ele>1097.4821777</ele>
        <time>2012-03-01T12:16:36Z</time>
      </trkpt>
      <trkpt lat="44.59604" lon="6.0995">
        <ele>1095.0788574</ele>
        <time>2012-03-01T12:16:45Z</time>
      </trkpt>
      <trkpt lat="44.59615" lon="6.09884">
        <ele>1092.6757813</ele>
        <time>2012-03-01T12:16:51Z</time>
      </trkpt>
      <trkpt lat="44.59638" lon="6.09824">
        <ele>1090.7529297</ele>
        <time>2012-03-01T12:16:57Z</time>
      </trkpt>
      <trkpt lat="44.59644" lon="6.09802">
        <ele>1089.791748</ele>
        <time>2012-03-01T12:16:59Z</time>
      </trkpt>
      <trkpt lat="44.59647" lon="6.09779">
        <ele>1088.8305664</ele>
        <time>2012-03-01T12:17:01Z</time>
      </trkpt>
      <trkpt lat="44.59674" lon="6.09736">
        <ele>1086.4272461</ele>
        <time>2012-03-01T12:17:06Z</time>
      </trkpt>
      <trkpt lat="44.59695" lon="6.0972">
        <ele>1085.9465332</ele>
        <time>2012-03-01T12:17:09Z</time>
      </trkpt>
      <trkpt lat="44.59717" lon="6.09692">
        <ele>1084.9853516</ele>
        <time>2012-03-01T12:17:13Z</time>
      </trkpt>
      <trkpt lat="44.59735" lon="6.09657">
        <ele>1083.0622559</ele>
        <time>2012-03-01T12:17:17Z</time>
      </trkpt>
      <trkpt lat="44.59734" lon="6.09612">
        <ele>1082.5817871</ele>
        <time>2012-03-01T12:17:24Z</time>
      </trkpt>
      <trkpt lat="44.59717" lon="6.0961">
        <ele>1083.0622559</ele>
        <time>2012-03-01T12:17:27Z</time>
      </trkpt>
      <trkpt lat="44.59701" lon="6.09617">
        <ele>1082.5817871</ele>
        <time>2012-03-01T12:17:30Z</time>
      </trkpt>
      <trkpt lat="44.59684" lon="6.09619">
        <ele>1083.0622559</ele>
        <time>2012-03-01T12:17:33Z</time>
      </trkpt>
      <trkpt lat="44.59607" lon="6.09608">
        <ele>1084.0239258</ele>
        <time>2012-03-01T12:17:51Z</time>
      </trkpt>
      <trkpt lat="44.59558" lon="6.09603">
        <ele>1084.0239258</ele>
        <time>2012-03-01T12:18:04Z</time>
      </trkpt>
      <trkpt lat="44.59536" lon="6.09616">
        <ele>1084.0239258</ele>
        <time>2012-03-01T12:18:10Z</time>
      </trkpt>
      <trkpt lat="44.59523" lon="6.09617">
        <ele>1083.5429688</ele>
        <time>2012-03-01T12:18:13Z</time>
      </trkpt>
      <trkpt lat="44.59496" lon="6.09604">
        <ele>1083.0622559</ele>
        <time>2012-03-01T12:18:19Z</time>
      </trkpt>
      <trkpt lat="44.59489" lon="6.09594">
        <ele>1082.5817871</ele>
        <time>2012-03-01T12:18:21Z</time>
      </trkpt>
      <trkpt lat="44.59465" lon="6.09557">
        <ele>1080.6591797</ele>
        <time>2012-03-01T12:18:27Z</time>
      </trkpt>
      <trkpt lat="44.59448" lon="6.0953">
        <ele>1080.1784668</ele>
        <time>2012-03-01T12:18:31Z</time>
      </trkpt>
      <trkpt lat="44.59399" lon="6.09458">
        <ele>1076.333252</ele>
        <time>2012-03-01T12:18:40Z</time>
      </trkpt>
      <trkpt lat="44.59393" lon="6.09448">
        <ele>1076.333252</ele>
        <time>2012-03-01T12:18:41Z</time>
      </trkpt>
      <trkpt lat="44.5937" lon="6.09411">
        <ele>1073.4494629</ele>
        <time>2012-03-01T12:18:45Z</time>
      </trkpt>
      <trkpt lat="44.59341" lon="6.09363">
        <ele>1070.5654297</ele>
        <time>2012-03-01T12:18:50Z</time>
      </trkpt>
      <trkpt lat="44.59322" lon="6.09298">
        <ele>1067.2006836</ele>
        <time>2012-03-01T12:18:55Z</time>
      </trkpt>
      <trkpt lat="44.59316" lon="6.09242">
        <ele>1064.7973633</ele>
        <time>2012-03-01T12:18:59Z</time>
      </trkpt>
      <trkpt lat="44.59314" lon="6.09177">
        <ele>1062.8747559</ele>
        <time>2012-03-01T12:19:04Z</time>
      </trkpt>
      <trkpt lat="44.59318" lon="6.09107">
        <ele>1060.4714355</ele>
        <time>2012-03-01T12:19:09Z</time>
      </trkpt>
      <trkpt lat="44.59301" lon="6.09031">
        <ele>1059.029541</ele>
        <time>2012-03-01T12:19:15Z</time>
      </trkpt>
      <trkpt lat="44.59282" lon="6.09">
        <ele>1057.1069336</ele>
        <time>2012-03-01T12:19:18Z</time>
      </trkpt>
      <trkpt lat="44.59248" lon="6.08936">
        <ele>1053.7424316</ele>
        <time>2012-03-01T12:19:25Z</time>
      </trkpt>
      <trkpt lat="44.59229" lon="6.08901">
        <ele>1051.8195801</ele>
        <time>2012-03-01T12:19:29Z</time>
      </trkpt>
      <trkpt lat="44.59175" lon="6.08802">
        <ele>1047.4936523</ele>
        <time>2012-03-01T12:19:40Z</time>
      </trkpt>
      <trkpt lat="44.5917" lon="6.08793">
        <ele>1047.4936523</ele>
        <time>2012-03-01T12:19:41Z</time>
      </trkpt>
      <trkpt lat="44.59114" lon="6.08656">
        <ele>1043.1677246</ele>
        <time>2012-03-01T12:19:54Z</time>
      </trkpt>
      <trkpt lat="44.5911" lon="6.08645">
        <ele>1043.1677246</ele>
        <time>2012-03-01T12:19:55Z</time>
      </trkpt>
      <trkpt lat="44.59085" lon="6.08563">
        <ele>1040.2839355</ele>
        <time>2012-03-01T12:20:02Z</time>
      </trkpt>
      <trkpt lat="44.59053" lon="6.08464">
        <ele>1035.4770508</ele>
        <time>2012-03-01T12:20:10Z</time>
      </trkpt>
      <trkpt lat="44.59049" lon="6.08451">
        <ele>1035.4770508</ele>
        <time>2012-03-01T12:20:11Z</time>
      </trkpt>
      <trkpt lat="44.59032" lon="6.084">
        <ele>1034.5158691</ele>
        <time>2012-03-01T12:20:15Z</time>
      </trkpt>
      <trkpt lat="44.59031" lon="6.08409">
        <ele>1031.1513672</ele>
        <time>2012-03-01T12:20:17Z</time>
      </trkpt>
      <trkpt lat="44.59031" lon="6.08409">
        <ele>1030.6706543</ele>
        <time>2012-03-01T12:20:18Z</time>
      </trkpt>
      <trkpt lat="44.5897" lon="6.08265">
        <ele>1027.7866211</ele>
        <time>2012-03-01T12:20:28Z</time>
      </trkpt>
      <trkpt lat="44.58944" lon="6.08209">
        <ele>1025.3833008</ele>
        <time>2012-03-01T12:20:34Z</time>
      </trkpt>
      <trkpt lat="44.58914" lon="6.08147">
        <ele>1022.4995117</ele>
        <time>2012-03-01T12:20:42Z</time>
      </trkpt>
      <trkpt lat="44.58896" lon="6.08117">
        <ele>1022.4995117</ele>
        <time>2012-03-01T12:20:50Z</time>
      </trkpt>
      <trkpt lat="44.58866" lon="6.08121">
        <ele>1019.6154785</ele>
        <time>2012-03-01T12:20:56Z</time>
      </trkpt>
      <trkpt lat="44.58859" lon="6.08121">
        <ele>1019.6154785</ele>
        <time>2012-03-01T12:20:57Z</time>
      </trkpt>
      <trkpt lat="44.58794" lon="6.08129">
        <ele>1016.7314453</ele>
        <time>2012-03-01T12:21:06Z</time>
      </trkpt>
      <trkpt lat="44.5873" lon="6.08135">
        <ele>1012.8862305</ele>
        <time>2012-03-01T12:21:14Z</time>
      </trkpt>
      <trkpt lat="44.58668" lon="6.08141">
        <ele>1009.5217285</ele>
        <time>2012-03-01T12:21:21Z</time>
      </trkpt>
      <trkpt lat="44.58649" lon="6.08143">
        <ele>1008.079834</ele>
        <time>2012-03-01T12:21:23Z</time>
      </trkpt>
      <trkpt lat="44.58593" lon="6.08151">
        <ele>1004.2346191</ele>
        <time>2012-03-01T12:21:29Z</time>
      </trkpt>
      <trkpt lat="44.58584" lon="6.08152">
        <ele>1004.2346191</ele>
        <time>2012-03-01T12:21:30Z</time>
      </trkpt>
      <trkpt lat="44.58509" lon="6.08159">
        <ele>1000.8696289</ele>
        <time>2012-03-01T12:21:38Z</time>
      </trkpt>
      <trkpt lat="44.58482" lon="6.0816">
        <ele>999.4277344</ele>
        <time>2012-03-01T12:21:41Z</time>
      </trkpt>
      <trkpt lat="44.58465" lon="6.0816">
        <ele>997.9858398</ele>
        <time>2012-03-01T12:21:43Z</time>
      </trkpt>
      <trkpt lat="44.58432" lon="6.0816">
        <ele>994.140625</ele>
        <time>2012-03-01T12:21:47Z</time>
      </trkpt>
      <trkpt lat="44.58417" lon="6.0816">
        <ele>992.2180176</ele>
        <time>2012-03-01T12:21:49Z</time>
      </trkpt>
      <trkpt lat="44.58385" lon="6.0818">
        <ele>993.1791992</ele>
        <time>2012-03-01T12:21:55Z</time>
      </trkpt>
      <trkpt lat="44.58383" lon="6.08191">
        <ele>991.2565918</ele>
        <time>2012-03-01T12:21:57Z</time>
      </trkpt>
      <trkpt lat="44.58392" lon="6.08229">
        <ele>989.8146973</ele>
        <time>2012-03-01T12:22:02Z</time>
      </trkpt>
      <trkpt lat="44.58401" lon="6.08246">
        <ele>987.8918457</ele>
        <time>2012-03-01T12:22:04Z</time>
      </trkpt>
      <trkpt lat="44.58405" lon="6.08255">
        <ele>987.8918457</ele>
        <time>2012-03-01T12:22:05Z</time>
      </trkpt>
      <trkpt lat="44.58414" lon="6.0827">
        <ele>985.4885254</ele>
        <time>2012-03-01T12:22:07Z</time>
      </trkpt>
      <trkpt lat="44.58426" lon="6.08287">
        <ele>985.4885254</ele>
        <time>2012-03-01T12:22:10Z</time>
      </trkpt>
      <trkpt lat="44.58432" lon="6.08305">
        <ele>984.0466309</ele>
        <time>2012-03-01T12:22:13Z</time>
      </trkpt>
      <trkpt lat="44.58413" lon="6.08315">
        <ele>981.6433105</ele>
        <time>2012-03-01T12:22:18Z</time>
      </trkpt>
      <trkpt lat="44.58405" lon="6.08302">
        <ele>981.6433105</ele>
        <time>2012-03-01T12:22:20Z</time>
      </trkpt>
      <trkpt lat="44.58365" lon="6.08239">
        <ele>976.8369141</ele>
        <time>2012-03-01T12:22:28Z</time>
      </trkpt>
      <trkpt lat="44.58339" lon="6.08209">
        <ele>974.9143066</ele>
        <time>2012-03-01T12:22:32Z</time>
      </trkpt>
      <trkpt lat="44.58321" lon="6.08187">
        <ele>971.5493164</ele>
        <time>2012-03-01T12:22:35Z</time>
      </trkpt>
      <trkpt lat="44.58292" lon="6.08148">
        <ele>968.1848145</ele>
        <time>2012-03-01T12:22:40Z</time>
      </trkpt>
      <trkpt lat="44.58287" lon="6.08141">
        <ele>968.1848145</ele>
        <time>2012-03-01T12:22:41Z</time>
      </trkpt>
      <trkpt lat="44.58276" lon="6.08115">
        <ele>964.8203125</ele>
        <time>2012-03-01T12:22:44Z</time>
      </trkpt>
      <trkpt lat="44.58261" lon="6.08072">
        <ele>963.8588867</ele>
        <time>2012-03-01T12:22:49Z</time>
      </trkpt>
      <trkpt lat="44.58253" lon="6.08058">
        <ele>961.9365234</ele>
        <time>2012-03-01T12:22:51Z</time>
      </trkpt>
      <trkpt lat="44.58231" lon="6.08066">
        <ele>962.4169922</ele>
        <time>2012-03-01T12:22:57Z</time>
      </trkpt>
      <trkpt lat="44.58233" lon="6.08098">
        <ele>961.4558105</ele>
        <time>2012-03-01T12:23:02Z</time>
      </trkpt>
      <trkpt lat="44.58242" lon="6.08124">
        <ele>959.5332031</ele>
        <time>2012-03-01T12:23:06Z</time>
      </trkpt>
      <trkpt lat="44.58253" lon="6.08155">
        <ele>958.5717773</ele>
        <time>2012-03-01T12:23:11Z</time>
      </trkpt>
      <trkpt lat="44.58259" lon="6.08176">
        <ele>956.6491699</ele>
        <time>2012-03-01T12:23:14Z</time>
      </trkpt>
      <trkpt lat="44.58261" lon="6.08182">
        <ele>955.6877441</ele>
        <time>2012-03-01T12:23:15Z</time>
      </trkpt>
      <trkpt lat="44.58268" lon="6.08212">
        <ele>953.7651367</ele>
        <time>2012-03-01T12:23:20Z</time>
      </trkpt>
      <trkpt lat="44.58269" lon="6.08222">
        <ele>952.8037109</ele>
        <time>2012-03-01T12:23:22Z</time>
      </trkpt>
      <trkpt lat="44.58261" lon="6.08239">
        <ele>950.8811035</ele>
        <time>2012-03-01T12:23:25Z</time>
      </trkpt>
      <trkpt lat="44.58239" lon="6.08229">
        <ele>948.9584961</ele>
        <time>2012-03-01T12:23:29Z</time>
      </trkpt>
      <trkpt lat="44.58208" lon="6.0819">
        <ele>945.5939941</ele>
        <time>2012-03-01T12:23:34Z</time>
      </trkpt>
      <trkpt lat="44.58202" lon="6.08182">
        <ele>945.5939941</ele>
        <time>2012-03-01T12:23:35Z</time>
      </trkpt>
      <trkpt lat="44.58176" lon="6.0815">
        <ele>942.7102051</ele>
        <time>2012-03-01T12:23:39Z</time>
      </trkpt>
      <trkpt lat="44.58159" lon="6.08117">
        <ele>937.4226074</ele>
        <time>2012-03-01T12:23:43Z</time>
      </trkpt>
      <trkpt lat="44.58157" lon="6.08108">
        <ele>937.4226074</ele>
        <time>2012-03-01T12:23:44Z</time>
      </trkpt>
      <trkpt lat="44.58155" lon="6.08091">
        <ele>939.3452148</ele>
        <time>2012-03-01T12:23:46Z</time>
      </trkpt>
      <trkpt lat="44.58131" lon="6.0806">
        <ele>936.9418945</ele>
        <time>2012-03-01T12:23:55Z</time>
      </trkpt>
      <trkpt lat="44.58127" lon="6.08064">
        <ele>936.4614258</ele>
        <time>2012-03-01T12:23:57Z</time>
      </trkpt>
      <trkpt lat="44.58125" lon="6.08073">
        <ele>934.5388184</ele>
        <time>2012-03-01T12:24:11Z</time>
      </trkpt>
      <trkpt lat="44.58125" lon="6.08073">
        <ele>935.0195313</ele>
        <time>2012-03-01T12:24:36Z</time>
      </trkpt>
      <trkpt lat="44.58099" lon="6.08048">
        <ele>932.135498</ele>
        <time>2012-03-01T12:24:42Z</time>
      </trkpt>
      <trkpt lat="44.58086" lon="6.08035">
        <ele>930.2128906</ele>
        <time>2012-03-01T12:24:44Z</time>
      </trkpt>
      <trkpt lat="44.58063" lon="6.08012">
        <ele>923.9641113</ele>
        <time>2012-03-01T12:24:48Z</time>
      </trkpt>
      <trkpt lat="44.58056" lon="6.08007">
        <ele>923.9641113</ele>
        <time>2012-03-01T12:24:49Z</time>
      </trkpt>
      <trkpt lat="44.5803" lon="6.07983">
        <ele>922.5222168</ele>
        <time>2012-03-01T12:24:53Z</time>
      </trkpt>
      <trkpt lat="44.58017" lon="6.07973">
        <ele>921.0803223</ele>
        <time>2012-03-01T12:24:55Z</time>
      </trkpt>
      <trkpt lat="44.57998" lon="6.07955">
        <ele>918.677002</ele>
        <time>2012-03-01T12:24:58Z</time>
      </trkpt>
      <trkpt lat="44.57974" lon="6.07933">
        <ele>914.3510742</ele>
        <time>2012-03-01T12:25:02Z</time>
      </trkpt>
      <trkpt lat="44.57969" lon="6.07926">
        <ele>914.3510742</ele>
        <time>2012-03-01T12:25:03Z</time>
      </trkpt>
      <trkpt lat="44.5796" lon="6.07915">
        <ele>917.2351074</ele>
        <time>2012-03-01T12:25:05Z</time>
      </trkpt>
      <trkpt lat="44.57955" lon="6.0791">
        <ele>913.3898926</ele>
        <time>2012-03-01T12:25:06Z</time>
      </trkpt>
      <trkpt lat="44.57951" lon="6.07906">
        <ele>913.3898926</ele>
        <time>2012-03-01T12:25:07Z</time>
      </trkpt>
      <trkpt lat="44.57934" lon="6.0789">
        <ele>910.9865723</ele>
        <time>2012-03-01T12:25:12Z</time>
      </trkpt>
      <trkpt lat="44.57926" lon="6.07883">
        <ele>911.4672852</ele>
        <time>2012-03-01T12:25:14Z</time>
      </trkpt>
      <trkpt lat="44.57881" lon="6.07832">
        <ele>907.6218262</ele>
        <time>2012-03-01T12:25:23Z</time>
      </trkpt>
      <trkpt lat="44.57876" lon="6.07826">
        <ele>909.5446777</ele>
        <time>2012-03-01T12:25:24Z</time>
      </trkpt>
      <trkpt lat="44.57833" lon="6.07794">
        <ele>902.3344727</ele>
        <time>2012-03-01T12:25:31Z</time>
      </trkpt>
      <trkpt lat="44.57828" lon="6.0779">
        <ele>902.8151855</ele>
        <time>2012-03-01T12:25:32Z</time>
      </trkpt>
      <trkpt lat="44.57806" lon="6.07771">
        <ele>899.4506836</ele>
        <time>2012-03-01T12:25:36Z</time>
      </trkpt>
      <trkpt lat="44.57801" lon="6.07766">
        <ele>899.4506836</ele>
        <time>2012-03-01T12:25:37Z</time>
      </trkpt>
      <trkpt lat="44.57784" lon="6.07748">
        <ele>897.5280762</ele>
        <time>2012-03-01T12:25:40Z</time>
      </trkpt>
      <trkpt lat="44.5777" lon="6.07738">
        <ele>895.6054688</ele>
        <time>2012-03-01T12:25:42Z</time>
      </trkpt>
      <trkpt lat="44.57755" lon="6.0773">
        <ele>893.6828613</ele>
        <time>2012-03-01T12:25:44Z</time>
      </trkpt>
      <trkpt lat="44.57741" lon="6.07723">
        <ele>888.8762207</ele>
        <time>2012-03-01T12:25:46Z</time>
      </trkpt>
      <trkpt lat="44.57735" lon="6.0772">
        <ele>888.8762207</ele>
        <time>2012-03-01T12:25:47Z</time>
      </trkpt>
      <trkpt lat="44.57723" lon="6.07714">
        <ele>887.434082</ele>
        <time>2012-03-01T12:25:49Z</time>
      </trkpt>
      <trkpt lat="44.57714" lon="6.0771">
        <ele>885.5114746</ele>
        <time>2012-03-01T12:25:51Z</time>
      </trkpt>
      <trkpt lat="44.57697" lon="6.07706">
        <ele>882.1469727</ele>
        <time>2012-03-01T12:25:55Z</time>
      </trkpt>
      <trkpt lat="44.57697" lon="6.07708">
        <ele>882.1469727</ele>
        <time>2012-03-01T12:25:56Z</time>
      </trkpt>
      <trkpt lat="44.57694" lon="6.07715">
        <ele>883.5888672</ele>
        <time>2012-03-01T12:25:58Z</time>
      </trkpt>
      <trkpt lat="44.57689" lon="6.07724">
        <ele>879.7436523</ele>
        <time>2012-03-01T12:26:02Z</time>
      </trkpt>
      <trkpt lat="44.57689" lon="6.07724">
        <ele>879.7436523</ele>
        <time>2012-03-01T12:26:03Z</time>
      </trkpt>
      <trkpt lat="44.57682" lon="6.07741">
        <ele>881.185791</ele>
        <time>2012-03-01T12:26:13Z</time>
      </trkpt>
      <trkpt lat="44.57668" lon="6.07765">
        <ele>881.6662598</ele>
        <time>2012-03-01T12:26:18Z</time>
      </trkpt>
      <trkpt lat="44.57649" lon="6.07842">
        <ele>878.3017578</ele>
        <time>2012-03-01T12:26:27Z</time>
      </trkpt>
      <trkpt lat="44.57647" lon="6.07852">
        <ele>878.3017578</ele>
        <time>2012-03-01T12:26:28Z</time>
      </trkpt>
      <trkpt lat="44.5764" lon="6.07885">
        <ele>875.8981934</ele>
        <time>2012-03-01T12:26:31Z</time>
      </trkpt>
      <trkpt lat="44.57635" lon="6.07907">
        <ele>873.4951172</ele>
        <time>2012-03-01T12:26:33Z</time>
      </trkpt>
      <trkpt lat="44.57615" lon="6.08063">
        <ele>872.0529785</ele>
        <time>2012-03-01T12:26:48Z</time>
      </trkpt>
      <trkpt lat="44.57615" lon="6.08169">
        <ele>867.7270508</ele>
        <time>2012-03-01T12:27:00Z</time>
      </trkpt>
      <trkpt lat="44.57615" lon="6.08179">
        <ele>867.7270508</ele>
        <time>2012-03-01T12:27:01Z</time>
      </trkpt>
      <trkpt lat="44.57615" lon="6.08243">
        <ele>864.3625488</ele>
        <time>2012-03-01T12:27:09Z</time>
      </trkpt>
      <trkpt lat="44.57612" lon="6.08257">
        <ele>864.3625488</ele>
        <time>2012-03-01T12:27:10Z</time>
      </trkpt>
      <trkpt lat="44.57601" lon="6.08254">
        <ele>863.4013672</ele>
        <time>2012-03-01T12:27:15Z</time>
      </trkpt>
      <trkpt lat="44.57548" lon="6.08258">
        <ele>859.5559082</ele>
        <time>2012-03-01T12:27:23Z</time>
      </trkpt>
      <trkpt lat="44.5753" lon="6.08269">
        <ele>857.6333008</ele>
        <time>2012-03-01T12:27:26Z</time>
      </trkpt>
      <trkpt lat="44.57523" lon="6.08284">
        <ele>856.671875</ele>
        <time>2012-03-01T12:27:28Z</time>
      </trkpt>
      <trkpt lat="44.57518" lon="6.083">
        <ele>855.2299805</ele>
        <time>2012-03-01T12:27:30Z</time>
      </trkpt>
      <trkpt lat="44.57503" lon="6.08322">
        <ele>851.8654785</ele>
        <time>2012-03-01T12:27:34Z</time>
      </trkpt>
      <trkpt lat="44.57498" lon="6.08321">
        <ele>851.8654785</ele>
        <time>2012-03-01T12:27:35Z</time>
      </trkpt>
      <trkpt lat="44.57481" lon="6.08303">
        <ele>850.9040527</ele>
        <time>2012-03-01T12:27:38Z</time>
      </trkpt>
      <trkpt lat="44.5747" lon="6.08288">
        <ele>849.4621582</ele>
        <time>2012-03-01T12:27:40Z</time>
      </trkpt>
      <trkpt lat="44.57443" lon="6.08254">
        <ele>844.6555176</ele>
        <time>2012-03-01T12:27:44Z</time>
      </trkpt>
      <trkpt lat="44.57437" lon="6.08246">
        <ele>844.1750488</ele>
        <time>2012-03-01T12:27:45Z</time>
      </trkpt>
      <trkpt lat="44.57425" lon="6.08235">
        <ele>843.2133789</ele>
        <time>2012-03-01T12:27:47Z</time>
      </trkpt>
      <trkpt lat="44.57397" lon="6.0824">
        <ele>838.8876953</ele>
        <time>2012-03-01T12:27:53Z</time>
      </trkpt>
      <trkpt lat="44.57393" lon="6.08249">
        <ele>838.8876953</ele>
        <time>2012-03-01T12:27:54Z</time>
      </trkpt>
      <trkpt lat="44.57378" lon="6.08292">
        <ele>837.4455566</ele>
        <time>2012-03-01T12:27:58Z</time>
      </trkpt>
      <trkpt lat="44.57374" lon="6.08303">
        <ele>834.0810547</ele>
        <time>2012-03-01T12:27:59Z</time>
      </trkpt>
      <trkpt lat="44.57369" lon="6.08312">
        <ele>834.0810547</ele>
        <time>2012-03-01T12:28:00Z</time>
      </trkpt>
      <trkpt lat="44.57361" lon="6.08327">
        <ele>831.1972656</ele>
        <time>2012-03-01T12:28:02Z</time>
      </trkpt>
      <trkpt lat="44.57338" lon="6.08326">
        <ele>828.3132324</ele>
        <time>2012-03-01T12:28:08Z</time>
      </trkpt>
      <trkpt lat="44.57335" lon="6.08317">
        <ele>826.8710938</ele>
        <time>2012-03-01T12:28:09Z</time>
      </trkpt>
      <trkpt lat="44.57323" lon="6.08266">
        <ele>823.9870605</ele>
        <time>2012-03-01T12:28:14Z</time>
      </trkpt>
      <trkpt lat="44.57319" lon="6.08257">
        <ele>823.9870605</ele>
        <time>2012-03-01T12:28:15Z</time>
      </trkpt>
      <trkpt lat="44.57313" lon="6.08241">
        <ele>822.0644531</ele>
        <time>2012-03-01T12:28:17Z</time>
      </trkpt>
      <trkpt lat="44.57306" lon="6.08231">
        <ele>820.1418457</ele>
        <time>2012-03-01T12:28:19Z</time>
      </trkpt>
      <trkpt lat="44.57283" lon="6.08238">
        <ele>819.1806641</ele>
        <time>2012-03-01T12:28:25Z</time>
      </trkpt>
      <trkpt lat="44.57261" lon="6.08274">
        <ele>816.7773438</ele>
        <time>2012-03-01T12:28:30Z</time>
      </trkpt>
      <trkpt lat="44.5724" lon="6.0829">
        <ele>815.3354492</ele>
        <time>2012-03-01T12:28:33Z</time>
      </trkpt>
      <trkpt lat="44.57231" lon="6.08293">
        <ele>815.8161621</ele>
        <time>2012-03-01T12:28:34Z</time>
      </trkpt>
      <trkpt lat="44.57213" lon="6.08294">
        <ele>813.8933105</ele>
        <time>2012-03-01T12:28:36Z</time>
      </trkpt>
      <trkpt lat="44.57193" lon="6.08296">
        <ele>811.9707031</ele>
        <time>2012-03-01T12:28:38Z</time>
      </trkpt>
      <trkpt lat="44.57172" lon="6.08298">
        <ele>809.5673828</ele>
        <time>2012-03-01T12:28:40Z</time>
      </trkpt>
      <trkpt lat="44.57127" lon="6.08303">
        <ele>803.3188477</ele>
        <time>2012-03-01T12:28:44Z</time>
      </trkpt>
      <trkpt lat="44.57116" lon="6.08304">
        <ele>803.3188477</ele>
        <time>2012-03-01T12:28:45Z</time>
      </trkpt>
      <trkpt lat="44.57072" lon="6.08309">
        <ele>799.9543457</ele>
        <time>2012-03-01T12:28:50Z</time>
      </trkpt>
      <trkpt lat="44.57021" lon="6.08314">
        <ele>797.0703125</ele>
        <time>2012-03-01T12:28:59Z</time>
      </trkpt>
      <trkpt lat="44.56993" lon="6.08318">
        <ele>795.6281738</ele>
        <time>2012-03-01T12:29:09Z</time>
      </trkpt>
      <trkpt lat="44.56951" lon="6.08322">
        <ele>792.7443848</ele>
        <time>2012-03-01T12:29:17Z</time>
      </trkpt>
      <trkpt lat="44.5694" lon="6.08323">
        <ele>791.3022461</ele>
        <time>2012-03-01T12:29:19Z</time>
      </trkpt>
      <trkpt lat="44.56864" lon="6.08329">
        <ele>790.3410645</ele>
        <time>2012-03-01T12:29:33Z</time>
      </trkpt>
      <trkpt lat="44.568" lon="6.08335">
        <ele>786.4958496</ele>
        <time>2012-03-01T12:29:41Z</time>
      </trkpt>
      <trkpt lat="44.56784" lon="6.08337">
        <ele>785.5344238</ele>
        <time>2012-03-01T12:29:43Z</time>
      </trkpt>
      <trkpt lat="44.56749" lon="6.08341">
        <ele>781.689209</ele>
        <time>2012-03-01T12:29:49Z</time>
      </trkpt>
      <trkpt lat="44.56745" lon="6.08342">
        <ele>781.689209</ele>
        <time>2012-03-01T12:29:50Z</time>
      </trkpt>
      <trkpt lat="44.56739" lon="6.08342">
        <ele>781.2087402</ele>
        <time>2012-03-01T12:29:52Z</time>
      </trkpt>
      <trkpt lat="44.56724" lon="6.08308">
        <ele>779.7663574</ele>
        <time>2012-03-01T12:29:57Z</time>
      </trkpt>
      <trkpt lat="44.56721" lon="6.08302">
        <ele>779.2856445</ele>
        <time>2012-03-01T12:29:58Z</time>
      </trkpt>
      <trkpt lat="44.56691" lon="6.08258">
        <ele>776.8825684</ele>
        <time>2012-03-01T12:30:05Z</time>
      </trkpt>
      <trkpt lat="44.5667" lon="6.08201">
        <ele>775.4404297</ele>
        <time>2012-03-01T12:30:13Z</time>
      </trkpt>
      <trkpt lat="44.56662" lon="6.0818">
        <ele>774.9599609</ele>
        <time>2012-03-01T12:30:17Z</time>
      </trkpt>
      <trkpt lat="44.5666" lon="6.08173">
        <ele>774.9599609</ele>
        <time>2012-03-01T12:30:19Z</time>
      </trkpt>
      <trkpt lat="44.56644" lon="6.08177">
        <ele>773.5180664</ele>
        <time>2012-03-01T12:30:22Z</time>
      </trkpt>
      <trkpt lat="44.56607" lon="6.08187">
        <ele>773.0373535</ele>
        <time>2012-03-01T12:30:29Z</time>
      </trkpt>
      <trkpt lat="44.56577" lon="6.08196">
        <ele>772.0759277</ele>
        <time>2012-03-01T12:30:34Z</time>
      </trkpt>
      <trkpt lat="44.56499" lon="6.08217">
        <ele>771.5952148</ele>
        <time>2012-03-01T12:30:47Z</time>
      </trkpt>
      <trkpt lat="44.56483" lon="6.0822">
        <ele>770.1533203</ele>
        <time>2012-03-01T12:30:50Z</time>
      </trkpt>
      <trkpt lat="44.56466" lon="6.0822">
        <ele>768.7114258</ele>
        <time>2012-03-01T12:30:54Z</time>
      </trkpt>
      <trkpt lat="44.56458" lon="6.0822">
        <ele>767.2695313</ele>
        <time>2012-03-01T12:30:56Z</time>
      </trkpt>
      <trkpt lat="44.56446" lon="6.08214">
        <ele>765.8276367</ele>
        <time>2012-03-01T12:30:59Z</time>
      </trkpt>
      <trkpt lat="44.56442" lon="6.08208">
        <ele>765.8276367</ele>
        <time>2012-03-01T12:31:00Z</time>
      </trkpt>
      <trkpt lat="44.56415" lon="6.08167">
        <ele>764.8662109</ele>
        <time>2012-03-01T12:31:07Z</time>
      </trkpt>
      <trkpt lat="44.56396" lon="6.08145">
        <ele>765.8276367</ele>
        <time>2012-03-01T12:31:11Z</time>
      </trkpt>
      <trkpt lat="44.56384" lon="6.08137">
        <ele>765.3469238</ele>
        <time>2012-03-01T12:31:13Z</time>
      </trkpt>
      <trkpt lat="44.56376" lon="6.08117">
        <ele>765.3469238</ele>
        <time>2012-03-01T12:31:20Z</time>
      </trkpt>
      <trkpt lat="44.56374" lon="6.07951">
        <ele>762.9433594</ele>
        <time>2012-03-01T12:31:41Z</time>
      </trkpt>
      <trkpt lat="44.56374" lon="6.07878">
        <ele>761.9821777</ele>
        <time>2012-03-01T12:31:51Z</time>
      </trkpt>
      <trkpt lat="44.56376" lon="6.07856">
        <ele>762.9433594</ele>
        <time>2012-03-01T12:31:54Z</time>
      </trkpt>
      <trkpt lat="44.56332" lon="6.07837">
        <ele>762.9433594</ele>
        <time>2012-03-01T12:32:04Z</time>
      </trkpt>
      <trkpt lat="44.56316" lon="6.07813">
        <ele>762.4626465</ele>
        <time>2012-03-01T12:32:09Z</time>
      </trkpt>
      <trkpt lat="44.56313" lon="6.07799">
        <ele>762.4626465</ele>
        <time>2012-03-01T12:32:11Z</time>
      </trkpt>
      <trkpt lat="44.56278" lon="6.07727">
        <ele>763.4240723</ele>
        <time>2012-03-01T12:32:27Z</time>
      </trkpt>
      <trkpt lat="44.56278" lon="6.07724">
        <ele>766.7888184</ele>
        <time>2012-03-01T12:32:28Z</time>
      </trkpt>
      <trkpt lat="44.56278" lon="6.07722">
        <ele>766.7888184</ele>
        <time>2012-03-01T12:32:29Z</time>
      </trkpt>
      <trkpt lat="44.56277" lon="6.07717">
        <ele>765.3469238</ele>
        <time>2012-03-01T12:32:31Z</time>
      </trkpt>
      <trkpt lat="44.56275" lon="6.07703">
        <ele>763.904541</ele>
        <time>2012-03-01T12:32:38Z</time>
      </trkpt>
      <trkpt lat="44.5621" lon="6.0776">
        <ele>764.385498</ele>
        <time>2012-03-01T12:32:53Z</time>
      </trkpt>
      <trkpt lat="44.56198" lon="6.07764">
        <ele>760.5400391</ele>
        <time>2012-03-01T12:32:56Z</time>
      </trkpt>
      <trkpt lat="44.56182" lon="6.07759">
        <ele>760.0593262</ele>
        <time>2012-03-01T12:33:00Z</time>
      </trkpt>
      <trkpt lat="44.56174" lon="6.07754">
        <ele>762.4626465</ele>
        <time>2012-03-01T12:33:02Z</time>
      </trkpt>
      <trkpt lat="44.5617" lon="6.07751">
        <ele>761.5014648</ele>
        <time>2012-03-01T12:33:03Z</time>
      </trkpt>
      <trkpt lat="44.56158" lon="6.07743">
        <ele>760.0593262</ele>
        <time>2012-03-01T12:33:06Z</time>
      </trkpt>
      <trkpt lat="44.56143" lon="6.07733">
        <ele>762.4626465</ele>
        <time>2012-03-01T12:33:11Z</time>
      </trkpt>
      <trkpt lat="44.56119" lon="6.07719">
        <ele>761.5014648</ele>
        <time>2012-03-01T12:33:18Z</time>
      </trkpt>
      <trkpt lat="44.56095" lon="6.07729">
        <ele>758.6174316</ele>
        <time>2012-03-01T12:33:28Z</time>
      </trkpt>
      <trkpt lat="44.56095" lon="6.07729">
        <ele>757.1755371</ele>
        <time>2012-03-01T12:33:32Z</time>
      </trkpt>
      <trkpt lat="44.56095" lon="6.07729">
        <ele>758.1369629</ele>
        <time>2012-03-01T12:33:34Z</time>
      </trkpt>
      <trkpt lat="44.56074" lon="6.07736">
        <ele>757.1755371</ele>
        <time>2012-03-01T12:34:02Z</time>
      </trkpt>
      <trkpt lat="44.56069" lon="6.07731">
        <ele>757.65625</ele>
        <time>2012-03-01T12:34:04Z</time>
      </trkpt>
      <trkpt lat="44.56061" lon="6.07716">
        <ele>758.1369629</ele>
        <time>2012-03-01T12:34:09Z</time>
      </trkpt>
      <trkpt lat="44.56036" lon="6.07642">
        <ele>758.1369629</ele>
        <time>2012-03-01T12:34:25Z</time>
      </trkpt>
      <trkpt lat="44.55976" lon="6.07588">
        <ele>758.6174316</ele>
        <time>2012-03-01T12:34:43Z</time>
      </trkpt>
      <trkpt lat="44.55939" lon="6.07555">
        <ele>759.0981445</ele>
        <time>2012-03-01T12:34:53Z</time>
      </trkpt>
      <trkpt lat="44.5592" lon="6.07535">
        <ele>758.1369629</ele>
        <time>2012-03-01T12:34:58Z</time>
      </trkpt>
      <trkpt lat="44.55883" lon="6.07499">
        <ele>757.1755371</ele>
        <time>2012-03-01T12:35:08Z</time>
      </trkpt>
      <trkpt lat="44.55877" lon="6.07493">
        <ele>758.1369629</ele>
        <time>2012-03-01T12:35:20Z</time>
      </trkpt>
      <trkpt lat="44.55877" lon="6.07493">
        <ele>755.7336426</ele>
        <time>2012-03-01T12:35:35Z</time>
      </trkpt>
      <trkpt lat="44.55877" lon="6.07493">
        <ele>758.6174316</ele>
        <time>2012-03-01T12:35:41Z</time>
      </trkpt>
    </trkseg>
  </trk>
</gpx>